<?xml version="1.0" encoding="UTF-8" standalone="no" ?>
<gpx xmlns="http://www.topografix.com/GPX/1/1" xmlns:xsi="http://www.w3.org/2001/XMLSchema-instance" xsi:schemaLocation="http://www.topografix.com/GPX/1/1 http://www.topografix.com/GPX/1/1/gpx.xsd" version="1.1" creator="VisuGPX - https://www.visugpx.com">
  <metadata>
    <name>Verfeil - Lac du Laragou</name>
    <desc><![CDATA[
]]></desc>
  </metadata>
  <trk>
    <name><![CDATA[Verfeil - Lac du Laragou]]></name>
    <trkseg>
      <trkpt lat="43.65788" lon="1.66236">
        <ele>228</ele>
        <time>2017-10-11T07:42:39.000Z</time>
      </trkpt>
      <trkpt lat="43.65788" lon="1.66236">
        <ele>228</ele>
        <time>2017-10-11T07:42:43.000Z</time>
      </trkpt>
      <trkpt lat="43.65788" lon="1.66269">
        <ele>229</ele>
        <time>2017-10-11T07:43:1.000Z</time>
      </trkpt>
      <trkpt lat="43.65798" lon="1.66291">
        <ele>230</ele>
        <time>2017-10-11T07:43:16.000Z</time>
      </trkpt>
      <trkpt lat="43.65802" lon="1.66297">
        <ele>230</ele>
        <time>2017-10-11T07:43:27.000Z</time>
      </trkpt>
      <trkpt lat="43.65806" lon="1.66296">
        <ele>230</ele>
        <time>2017-10-11T07:43:31.000Z</time>
      </trkpt>
      <trkpt lat="43.6583" lon="1.66293">
        <ele>230</ele>
        <time>2017-10-11T07:43:49.000Z</time>
      </trkpt>
      <trkpt lat="43.65856" lon="1.66291">
        <ele>228</ele>
        <time>2017-10-11T07:44:8.000Z</time>
      </trkpt>
      <trkpt lat="43.65875" lon="1.6629">
        <ele>228</ele>
        <time>2017-10-11T07:44:22.000Z</time>
      </trkpt>
      <trkpt lat="43.65895" lon="1.66286">
        <ele>227</ele>
        <time>2017-10-11T07:44:40.000Z</time>
      </trkpt>
      <trkpt lat="43.65919" lon="1.66283">
        <ele>227</ele>
        <time>2017-10-11T07:44:55.000Z</time>
      </trkpt>
      <trkpt lat="43.65939" lon="1.66276">
        <ele>225</ele>
        <time>2017-10-11T07:45:11.000Z</time>
      </trkpt>
      <trkpt lat="43.65962" lon="1.66273">
        <ele>224</ele>
        <time>2017-10-11T07:45:25.000Z</time>
      </trkpt>
      <trkpt lat="43.65983" lon="1.66261">
        <ele>222</ele>
        <time>2017-10-11T07:45:40.000Z</time>
      </trkpt>
      <trkpt lat="43.65997" lon="1.66254">
        <ele>222</ele>
        <time>2017-10-11T07:45:52.000Z</time>
      </trkpt>
      <trkpt lat="43.66021" lon="1.66237">
        <ele>221</ele>
        <time>2017-10-11T07:46:11.000Z</time>
      </trkpt>
      <trkpt lat="43.66042" lon="1.66232">
        <ele>219</ele>
        <time>2017-10-11T07:46:26.000Z</time>
      </trkpt>
      <trkpt lat="43.66047" lon="1.66229">
        <ele>219</ele>
        <time>2017-10-11T07:46:30.000Z</time>
      </trkpt>
      <trkpt lat="43.6605" lon="1.66227">
        <ele>219</ele>
        <time>2017-10-11T07:46:33.000Z</time>
      </trkpt>
      <trkpt lat="43.66062" lon="1.66231">
        <ele>218</ele>
        <time>2017-10-11T07:46:41.000Z</time>
      </trkpt>
      <trkpt lat="43.66066" lon="1.6624">
        <ele>217</ele>
        <time>2017-10-11T07:46:46.000Z</time>
      </trkpt>
      <trkpt lat="43.6607" lon="1.66255">
        <ele>215</ele>
        <time>2017-10-11T07:46:55.000Z</time>
      </trkpt>
      <trkpt lat="43.66079" lon="1.66281">
        <ele>213</ele>
        <time>2017-10-11T07:47:11.000Z</time>
      </trkpt>
      <trkpt lat="43.66089" lon="1.66307">
        <ele>210</ele>
        <time>2017-10-11T07:47:28.000Z</time>
      </trkpt>
      <trkpt lat="43.66104" lon="1.66341">
        <ele>209</ele>
        <time>2017-10-11T07:47:47.000Z</time>
      </trkpt>
      <trkpt lat="43.66114" lon="1.66367">
        <ele>210</ele>
        <time>2017-10-11T07:48:3.000Z</time>
      </trkpt>
      <trkpt lat="43.66128" lon="1.66402">
        <ele>211</ele>
        <time>2017-10-11T07:48:24.000Z</time>
      </trkpt>
      <trkpt lat="43.66136" lon="1.66421">
        <ele>212</ele>
        <time>2017-10-11T07:48:36.000Z</time>
      </trkpt>
      <trkpt lat="43.66144" lon="1.6644">
        <ele>212</ele>
        <time>2017-10-11T07:48:48.000Z</time>
      </trkpt>
      <trkpt lat="43.66155" lon="1.66461">
        <ele>213</ele>
        <time>2017-10-11T07:49:3.000Z</time>
      </trkpt>
      <trkpt lat="43.66159" lon="1.66481">
        <ele>213</ele>
        <time>2017-10-11T07:49:16.000Z</time>
      </trkpt>
      <trkpt lat="43.66174" lon="1.66505">
        <ele>212</ele>
        <time>2017-10-11T07:49:33.000Z</time>
      </trkpt>
      <trkpt lat="43.66179" lon="1.66521">
        <ele>211</ele>
        <time>2017-10-11T07:49:44.000Z</time>
      </trkpt>
      <trkpt lat="43.66179" lon="1.66537">
        <ele>210</ele>
        <time>2017-10-11T07:49:56.000Z</time>
      </trkpt>
      <trkpt lat="43.6619" lon="1.6655">
        <ele>209</ele>
        <time>2017-10-11T07:50:11.000Z</time>
      </trkpt>
      <trkpt lat="43.66206" lon="1.6656">
        <ele>207</ele>
        <time>2017-10-11T07:50:24.000Z</time>
      </trkpt>
      <trkpt lat="43.66221" lon="1.66572">
        <ele>206</ele>
        <time>2017-10-11T07:50:37.000Z</time>
      </trkpt>
      <trkpt lat="43.66241" lon="1.66584">
        <ele>203</ele>
        <time>2017-10-11T07:50:54.000Z</time>
      </trkpt>
      <trkpt lat="43.66256" lon="1.66592">
        <ele>200</ele>
        <time>2017-10-11T07:51:6.000Z</time>
      </trkpt>
      <trkpt lat="43.66268" lon="1.66602">
        <ele>197</ele>
        <time>2017-10-11T07:51:18.000Z</time>
      </trkpt>
      <trkpt lat="43.66281" lon="1.66612">
        <ele>194</ele>
        <time>2017-10-11T07:51:30.000Z</time>
      </trkpt>
      <trkpt lat="43.66297" lon="1.66632">
        <ele>193</ele>
        <time>2017-10-11T07:51:50.000Z</time>
      </trkpt>
      <trkpt lat="43.663" lon="1.66633">
        <ele>192</ele>
        <time>2017-10-11T07:51:53.000Z</time>
      </trkpt>
      <trkpt lat="43.6631" lon="1.66637">
        <ele>192</ele>
        <time>2017-10-11T07:52:2.000Z</time>
      </trkpt>
      <trkpt lat="43.66321" lon="1.66645">
        <ele>191</ele>
        <time>2017-10-11T07:52:18.000Z</time>
      </trkpt>
      <trkpt lat="43.66334" lon="1.66655">
        <ele>192</ele>
        <time>2017-10-11T07:52:33.000Z</time>
      </trkpt>
      <trkpt lat="43.66341" lon="1.66661">
        <ele>194</ele>
        <time>2017-10-11T07:52:40.000Z</time>
      </trkpt>
      <trkpt lat="43.66355" lon="1.66674">
        <ele>196</ele>
        <time>2017-10-11T07:52:57.000Z</time>
      </trkpt>
      <trkpt lat="43.66369" lon="1.66685">
        <ele>200</ele>
        <time>2017-10-11T07:53:13.000Z</time>
      </trkpt>
      <trkpt lat="43.66378" lon="1.66699">
        <ele>202</ele>
        <time>2017-10-11T07:53:28.000Z</time>
      </trkpt>
      <trkpt lat="43.66382" lon="1.66704">
        <ele>203</ele>
        <time>2017-10-11T07:53:34.000Z</time>
      </trkpt>
      <trkpt lat="43.66392" lon="1.66715">
        <ele>205</ele>
        <time>2017-10-11T07:53:49.000Z</time>
      </trkpt>
      <trkpt lat="43.66404" lon="1.66731">
        <ele>207</ele>
        <time>2017-10-11T07:54:7.000Z</time>
      </trkpt>
      <trkpt lat="43.66413" lon="1.66744">
        <ele>208</ele>
        <time>2017-10-11T07:54:21.000Z</time>
      </trkpt>
      <trkpt lat="43.66424" lon="1.66761">
        <ele>211</ele>
        <time>2017-10-11T07:54:39.000Z</time>
      </trkpt>
      <trkpt lat="43.66434" lon="1.6677">
        <ele>213</ele>
        <time>2017-10-11T07:54:53.000Z</time>
      </trkpt>
      <trkpt lat="43.6644" lon="1.66784">
        <ele>215</ele>
        <time>2017-10-11T07:55:7.000Z</time>
      </trkpt>
      <trkpt lat="43.6645" lon="1.66795">
        <ele>216</ele>
        <time>2017-10-11T07:55:21.000Z</time>
      </trkpt>
      <trkpt lat="43.6646" lon="1.6681">
        <ele>219</ele>
        <time>2017-10-11T07:55:38.000Z</time>
      </trkpt>
      <trkpt lat="43.66473" lon="1.66826">
        <ele>220</ele>
        <time>2017-10-11T07:55:54.000Z</time>
      </trkpt>
      <trkpt lat="43.66481" lon="1.66834">
        <ele>221</ele>
        <time>2017-10-11T07:56:7.000Z</time>
      </trkpt>
      <trkpt lat="43.66494" lon="1.6685">
        <ele>222</ele>
        <time>2017-10-11T07:56:22.000Z</time>
      </trkpt>
      <trkpt lat="43.66504" lon="1.66865">
        <ele>222</ele>
        <time>2017-10-11T07:56:37.000Z</time>
      </trkpt>
      <trkpt lat="43.66506" lon="1.66867">
        <ele>222</ele>
        <time>2017-10-11T07:56:56.000Z</time>
      </trkpt>
      <trkpt lat="43.66506" lon="1.66867">
        <ele>222</ele>
        <time>2017-10-11T07:57:57.000Z</time>
      </trkpt>
      <trkpt lat="43.66505" lon="1.66868">
        <ele>222</ele>
        <time>2017-10-11T07:58:57.000Z</time>
      </trkpt>
      <trkpt lat="43.66509" lon="1.66864">
        <ele>222</ele>
        <time>2017-10-11T07:59:38.000Z</time>
      </trkpt>
      <trkpt lat="43.66516" lon="1.66847">
        <ele>222</ele>
        <time>2017-10-11T07:59:52.000Z</time>
      </trkpt>
      <trkpt lat="43.66519" lon="1.66842">
        <ele>222</ele>
        <time>2017-10-11T07:59:58.000Z</time>
      </trkpt>
      <trkpt lat="43.66529" lon="1.66821">
        <ele>222</ele>
        <time>2017-10-11T08:00:16.000Z</time>
      </trkpt>
      <trkpt lat="43.66541" lon="1.66804">
        <ele>222</ele>
        <time>2017-10-11T08:00:32.000Z</time>
      </trkpt>
      <trkpt lat="43.66548" lon="1.6681">
        <ele>222</ele>
        <time>2017-10-11T08:00:40.000Z</time>
      </trkpt>
      <trkpt lat="43.66561" lon="1.66832">
        <ele>221</ele>
        <time>2017-10-11T08:00:57.000Z</time>
      </trkpt>
      <trkpt lat="43.66568" lon="1.66852">
        <ele>220</ele>
        <time>2017-10-11T08:01:12.000Z</time>
      </trkpt>
      <trkpt lat="43.66572" lon="1.66864">
        <ele>219</ele>
        <time>2017-10-11T08:01:21.000Z</time>
      </trkpt>
      <trkpt lat="43.66579" lon="1.66883">
        <ele>218</ele>
        <time>2017-10-11T08:01:37.000Z</time>
      </trkpt>
      <trkpt lat="43.66586" lon="1.66897">
        <ele>217</ele>
        <time>2017-10-11T08:01:50.000Z</time>
      </trkpt>
      <trkpt lat="43.66593" lon="1.66913">
        <ele>216</ele>
        <time>2017-10-11T08:02:2.000Z</time>
      </trkpt>
      <trkpt lat="43.66602" lon="1.66935">
        <ele>214</ele>
        <time>2017-10-11T08:02:19.000Z</time>
      </trkpt>
      <trkpt lat="43.66604" lon="1.66938">
        <ele>213</ele>
        <time>2017-10-11T08:02:22.000Z</time>
      </trkpt>
      <trkpt lat="43.66607" lon="1.66941">
        <ele>213</ele>
        <time>2017-10-11T08:02:25.000Z</time>
      </trkpt>
      <trkpt lat="43.66615" lon="1.66962">
        <ele>211</ele>
        <time>2017-10-11T08:02:41.000Z</time>
      </trkpt>
      <trkpt lat="43.66631" lon="1.66984">
        <ele>208</ele>
        <time>2017-10-11T08:02:59.000Z</time>
      </trkpt>
      <trkpt lat="43.66647" lon="1.66983">
        <ele>206</ele>
        <time>2017-10-11T08:03:14.000Z</time>
      </trkpt>
      <trkpt lat="43.66651" lon="1.66983">
        <ele>206</ele>
        <time>2017-10-11T08:03:18.000Z</time>
      </trkpt>
      <trkpt lat="43.66664" lon="1.66993">
        <ele>204</ele>
        <time>2017-10-11T08:03:35.000Z</time>
      </trkpt>
      <trkpt lat="43.66677" lon="1.67008">
        <ele>202</ele>
        <time>2017-10-11T08:03:53.000Z</time>
      </trkpt>
      <trkpt lat="43.66689" lon="1.6702">
        <ele>200</ele>
        <time>2017-10-11T08:04:8.000Z</time>
      </trkpt>
      <trkpt lat="43.66701" lon="1.67024">
        <ele>199</ele>
        <time>2017-10-11T08:04:22.000Z</time>
      </trkpt>
      <trkpt lat="43.66706" lon="1.67026">
        <ele>199</ele>
        <time>2017-10-11T08:04:29.000Z</time>
      </trkpt>
      <trkpt lat="43.66726" lon="1.67026">
        <ele>197</ele>
        <time>2017-10-11T08:04:46.000Z</time>
      </trkpt>
      <trkpt lat="43.66746" lon="1.67028">
        <ele>195</ele>
        <time>2017-10-11T08:05:5.000Z</time>
      </trkpt>
      <trkpt lat="43.66765" lon="1.67029">
        <ele>194</ele>
        <time>2017-10-11T08:05:23.000Z</time>
      </trkpt>
      <trkpt lat="43.66787" lon="1.6703">
        <ele>192</ele>
        <time>2017-10-11T08:05:41.000Z</time>
      </trkpt>
      <trkpt lat="43.66801" lon="1.6703">
        <ele>191</ele>
        <time>2017-10-11T08:05:56.000Z</time>
      </trkpt>
      <trkpt lat="43.66818" lon="1.67033">
        <ele>189</ele>
        <time>2017-10-11T08:06:10.000Z</time>
      </trkpt>
      <trkpt lat="43.66827" lon="1.67033">
        <ele>189</ele>
        <time>2017-10-11T08:06:18.000Z</time>
      </trkpt>
      <trkpt lat="43.66833" lon="1.67035">
        <ele>188</ele>
        <time>2017-10-11T08:06:24.000Z</time>
      </trkpt>
      <trkpt lat="43.66846" lon="1.67039">
        <ele>187</ele>
        <time>2017-10-11T08:06:38.000Z</time>
      </trkpt>
      <trkpt lat="43.66862" lon="1.67046">
        <ele>186</ele>
        <time>2017-10-11T08:06:51.000Z</time>
      </trkpt>
      <trkpt lat="43.66873" lon="1.67052">
        <ele>185</ele>
        <time>2017-10-11T08:07:2.000Z</time>
      </trkpt>
      <trkpt lat="43.6689" lon="1.67062">
        <ele>183</ele>
        <time>2017-10-11T08:07:18.000Z</time>
      </trkpt>
      <trkpt lat="43.66897" lon="1.67066">
        <ele>182</ele>
        <time>2017-10-11T08:07:25.000Z</time>
      </trkpt>
      <trkpt lat="43.66903" lon="1.67067">
        <ele>182</ele>
        <time>2017-10-11T08:07:37.000Z</time>
      </trkpt>
      <trkpt lat="43.66904" lon="1.6706">
        <ele>181</ele>
        <time>2017-10-11T08:07:43.000Z</time>
      </trkpt>
      <trkpt lat="43.66909" lon="1.67048">
        <ele>181</ele>
        <time>2017-10-11T08:07:50.000Z</time>
      </trkpt>
      <trkpt lat="43.66918" lon="1.67022">
        <ele>181</ele>
        <time>2017-10-11T08:08:9.000Z</time>
      </trkpt>
      <trkpt lat="43.66923" lon="1.66996">
        <ele>181</ele>
        <time>2017-10-11T08:08:24.000Z</time>
      </trkpt>
      <trkpt lat="43.66925" lon="1.66993">
        <ele>181</ele>
        <time>2017-10-11T08:08:26.000Z</time>
      </trkpt>
      <trkpt lat="43.66942" lon="1.6698">
        <ele>181</ele>
        <time>2017-10-11T08:08:43.000Z</time>
      </trkpt>
      <trkpt lat="43.66943" lon="1.66979">
        <ele>181</ele>
        <time>2017-10-11T08:08:44.000Z</time>
      </trkpt>
      <trkpt lat="43.66949" lon="1.66973">
        <ele>180</ele>
        <time>2017-10-11T08:08:51.000Z</time>
      </trkpt>
      <trkpt lat="43.66959" lon="1.66971">
        <ele>180</ele>
        <time>2017-10-11T08:09:6.000Z</time>
      </trkpt>
      <trkpt lat="43.66963" lon="1.66972">
        <ele>179</ele>
        <time>2017-10-11T08:09:11.000Z</time>
      </trkpt>
      <trkpt lat="43.66968" lon="1.66971">
        <ele>179</ele>
        <time>2017-10-11T08:09:16.000Z</time>
      </trkpt>
      <trkpt lat="43.66975" lon="1.66952">
        <ele>177</ele>
        <time>2017-10-11T08:09:31.000Z</time>
      </trkpt>
      <trkpt lat="43.66976" lon="1.66952">
        <ele>177</ele>
        <time>2017-10-11T08:09:49.000Z</time>
      </trkpt>
      <trkpt lat="43.66976" lon="1.66952">
        <ele>177</ele>
        <time>2017-10-11T08:10:35.000Z</time>
      </trkpt>
      <trkpt lat="43.66977" lon="1.66951">
        <ele>177</ele>
        <time>2017-10-11T08:12:44.000Z</time>
      </trkpt>
      <trkpt lat="43.6698" lon="1.6694">
        <ele>177</ele>
        <time>2017-10-11T08:13:33.000Z</time>
      </trkpt>
      <trkpt lat="43.6699" lon="1.66942">
        <ele>176</ele>
        <time>2017-10-11T08:13:47.000Z</time>
      </trkpt>
      <trkpt lat="43.67003" lon="1.66947">
        <ele>175</ele>
        <time>2017-10-11T08:14:3.000Z</time>
      </trkpt>
      <trkpt lat="43.67008" lon="1.66947">
        <ele>176</ele>
        <time>2017-10-11T08:14:6.000Z</time>
      </trkpt>
      <trkpt lat="43.67021" lon="1.6695">
        <ele>178</ele>
        <time>2017-10-11T08:14:21.000Z</time>
      </trkpt>
      <trkpt lat="43.67032" lon="1.66953">
        <ele>180</ele>
        <time>2017-10-11T08:14:34.000Z</time>
      </trkpt>
      <trkpt lat="43.67043" lon="1.66955">
        <ele>181</ele>
        <time>2017-10-11T08:14:47.000Z</time>
      </trkpt>
      <trkpt lat="43.67052" lon="1.66956">
        <ele>183</ele>
        <time>2017-10-11T08:15:1.000Z</time>
      </trkpt>
      <trkpt lat="43.67065" lon="1.66959">
        <ele>185</ele>
        <time>2017-10-11T08:15:16.000Z</time>
      </trkpt>
      <trkpt lat="43.67073" lon="1.66961">
        <ele>187</ele>
        <time>2017-10-11T08:15:28.000Z</time>
      </trkpt>
      <trkpt lat="43.67081" lon="1.66962">
        <ele>188</ele>
        <time>2017-10-11T08:15:39.000Z</time>
      </trkpt>
      <trkpt lat="43.67093" lon="1.66963">
        <ele>191</ele>
        <time>2017-10-11T08:15:54.000Z</time>
      </trkpt>
      <trkpt lat="43.67106" lon="1.66965">
        <ele>194</ele>
        <time>2017-10-11T08:16:10.000Z</time>
      </trkpt>
      <trkpt lat="43.67117" lon="1.66965">
        <ele>197</ele>
        <time>2017-10-11T08:16:25.000Z</time>
      </trkpt>
      <trkpt lat="43.67127" lon="1.66966">
        <ele>199</ele>
        <time>2017-10-11T08:16:41.000Z</time>
      </trkpt>
      <trkpt lat="43.67136" lon="1.66965">
        <ele>201</ele>
        <time>2017-10-11T08:17:0.000Z</time>
      </trkpt>
      <trkpt lat="43.67144" lon="1.66967">
        <ele>204</ele>
        <time>2017-10-11T08:17:15.000Z</time>
      </trkpt>
      <trkpt lat="43.67154" lon="1.66967">
        <ele>206</ele>
        <time>2017-10-11T08:17:29.000Z</time>
      </trkpt>
      <trkpt lat="43.67165" lon="1.66966">
        <ele>209</ele>
        <time>2017-10-11T08:17:47.000Z</time>
      </trkpt>
      <trkpt lat="43.67174" lon="1.66968">
        <ele>212</ele>
        <time>2017-10-11T08:18:2.000Z</time>
      </trkpt>
      <trkpt lat="43.67181" lon="1.66968">
        <ele>214</ele>
        <time>2017-10-11T08:18:15.000Z</time>
      </trkpt>
      <trkpt lat="43.67188" lon="1.66969">
        <ele>215</ele>
        <time>2017-10-11T08:18:27.000Z</time>
      </trkpt>
      <trkpt lat="43.67196" lon="1.6697">
        <ele>216</ele>
        <time>2017-10-11T08:18:41.000Z</time>
      </trkpt>
      <trkpt lat="43.67204" lon="1.66971">
        <ele>217</ele>
        <time>2017-10-11T08:18:55.000Z</time>
      </trkpt>
      <trkpt lat="43.67214" lon="1.66972">
        <ele>219</ele>
        <time>2017-10-11T08:19:12.000Z</time>
      </trkpt>
      <trkpt lat="43.67223" lon="1.66974">
        <ele>220</ele>
        <time>2017-10-11T08:19:26.000Z</time>
      </trkpt>
      <trkpt lat="43.67226" lon="1.66974">
        <ele>221</ele>
        <time>2017-10-11T08:19:40.000Z</time>
      </trkpt>
      <trkpt lat="43.67226" lon="1.66974">
        <ele>221</ele>
        <time>2017-10-11T08:20:8.000Z</time>
      </trkpt>
      <trkpt lat="43.67228" lon="1.66974">
        <ele>221</ele>
        <time>2017-10-11T08:22:21.000Z</time>
      </trkpt>
      <trkpt lat="43.67227" lon="1.66979">
        <ele>221</ele>
        <time>2017-10-11T08:24:28.000Z</time>
      </trkpt>
      <trkpt lat="43.67226" lon="1.66993">
        <ele>221</ele>
        <time>2017-10-11T08:24:41.000Z</time>
      </trkpt>
      <trkpt lat="43.67225" lon="1.66998">
        <ele>221</ele>
        <time>2017-10-11T08:24:45.000Z</time>
      </trkpt>
      <trkpt lat="43.67225" lon="1.67004">
        <ele>221</ele>
        <time>2017-10-11T08:24:50.000Z</time>
      </trkpt>
      <trkpt lat="43.67229" lon="1.67032">
        <ele>221</ele>
        <time>2017-10-11T08:25:10.000Z</time>
      </trkpt>
      <trkpt lat="43.67246" lon="1.67048">
        <ele>220</ele>
        <time>2017-10-11T08:25:27.000Z</time>
      </trkpt>
      <trkpt lat="43.6726" lon="1.67064">
        <ele>219</ele>
        <time>2017-10-11T08:25:44.000Z</time>
      </trkpt>
      <trkpt lat="43.67281" lon="1.67079">
        <ele>217</ele>
        <time>2017-10-11T08:26:2.000Z</time>
      </trkpt>
      <trkpt lat="43.67296" lon="1.67097">
        <ele>215</ele>
        <time>2017-10-11T08:26:17.000Z</time>
      </trkpt>
      <trkpt lat="43.67311" lon="1.67112">
        <ele>214</ele>
        <time>2017-10-11T08:26:34.000Z</time>
      </trkpt>
      <trkpt lat="43.67331" lon="1.67126">
        <ele>214</ele>
        <time>2017-10-11T08:26:52.000Z</time>
      </trkpt>
      <trkpt lat="43.67345" lon="1.67132">
        <ele>213</ele>
        <time>2017-10-11T08:27:7.000Z</time>
      </trkpt>
      <trkpt lat="43.67356" lon="1.67135">
        <ele>213</ele>
        <time>2017-10-11T08:27:15.000Z</time>
      </trkpt>
      <trkpt lat="43.67361" lon="1.67137">
        <ele>213</ele>
        <time>2017-10-11T08:27:19.000Z</time>
      </trkpt>
      <trkpt lat="43.67384" lon="1.67143">
        <ele>212</ele>
        <time>2017-10-11T08:27:38.000Z</time>
      </trkpt>
      <trkpt lat="43.67402" lon="1.6713">
        <ele>211</ele>
        <time>2017-10-11T08:27:55.000Z</time>
      </trkpt>
      <trkpt lat="43.67418" lon="1.67109">
        <ele>210</ele>
        <time>2017-10-11T08:28:14.000Z</time>
      </trkpt>
      <trkpt lat="43.67433" lon="1.67091">
        <ele>209</ele>
        <time>2017-10-11T08:28:31.000Z</time>
      </trkpt>
      <trkpt lat="43.67451" lon="1.67065">
        <ele>208</ele>
        <time>2017-10-11T08:28:52.000Z</time>
      </trkpt>
      <trkpt lat="43.67467" lon="1.67048">
        <ele>207</ele>
        <time>2017-10-11T08:29:10.000Z</time>
      </trkpt>
      <trkpt lat="43.67487" lon="1.67027">
        <ele>206</ele>
        <time>2017-10-11T08:29:30.000Z</time>
      </trkpt>
      <trkpt lat="43.67503" lon="1.67007">
        <ele>206</ele>
        <time>2017-10-11T08:29:48.000Z</time>
      </trkpt>
      <trkpt lat="43.6752" lon="1.66988">
        <ele>205</ele>
        <time>2017-10-11T08:30:6.000Z</time>
      </trkpt>
      <trkpt lat="43.67538" lon="1.66969">
        <ele>204</ele>
        <time>2017-10-11T08:30:26.000Z</time>
      </trkpt>
      <trkpt lat="43.67558" lon="1.66947">
        <ele>202</ele>
        <time>2017-10-11T08:30:46.000Z</time>
      </trkpt>
      <trkpt lat="43.67572" lon="1.66927">
        <ele>200</ele>
        <time>2017-10-11T08:31:3.000Z</time>
      </trkpt>
      <trkpt lat="43.67591" lon="1.66905">
        <ele>199</ele>
        <time>2017-10-11T08:31:24.000Z</time>
      </trkpt>
      <trkpt lat="43.67608" lon="1.66881">
        <ele>197</ele>
        <time>2017-10-11T08:31:43.000Z</time>
      </trkpt>
      <trkpt lat="43.67622" lon="1.66865">
        <ele>196</ele>
        <time>2017-10-11T08:31:57.000Z</time>
      </trkpt>
      <trkpt lat="43.67638" lon="1.66849">
        <ele>195</ele>
        <time>2017-10-11T08:32:15.000Z</time>
      </trkpt>
      <trkpt lat="43.67657" lon="1.66826">
        <ele>194</ele>
        <time>2017-10-11T08:32:36.000Z</time>
      </trkpt>
      <trkpt lat="43.67668" lon="1.66815">
        <ele>193</ele>
        <time>2017-10-11T08:32:47.000Z</time>
      </trkpt>
      <trkpt lat="43.67673" lon="1.6681">
        <ele>193</ele>
        <time>2017-10-11T08:32:52.000Z</time>
      </trkpt>
      <trkpt lat="43.67686" lon="1.66792">
        <ele>191</ele>
        <time>2017-10-11T08:33:7.000Z</time>
      </trkpt>
      <trkpt lat="43.67692" lon="1.66789">
        <ele>190</ele>
        <time>2017-10-11T08:33:12.000Z</time>
      </trkpt>
      <trkpt lat="43.6771" lon="1.66767">
        <ele>188</ele>
        <time>2017-10-11T08:33:32.000Z</time>
      </trkpt>
      <trkpt lat="43.67722" lon="1.66736">
        <ele>186</ele>
        <time>2017-10-11T08:33:53.000Z</time>
      </trkpt>
      <trkpt lat="43.67728" lon="1.66727">
        <ele>185</ele>
        <time>2017-10-11T08:34:2.000Z</time>
      </trkpt>
      <trkpt lat="43.67733" lon="1.66691">
        <ele>183</ele>
        <time>2017-10-11T08:34:21.000Z</time>
      </trkpt>
      <trkpt lat="43.67738" lon="1.66668">
        <ele>182</ele>
        <time>2017-10-11T08:34:36.000Z</time>
      </trkpt>
      <trkpt lat="43.67739" lon="1.66659">
        <ele>182</ele>
        <time>2017-10-11T08:34:42.000Z</time>
      </trkpt>
      <trkpt lat="43.67747" lon="1.66638">
        <ele>180</ele>
        <time>2017-10-11T08:34:55.000Z</time>
      </trkpt>
      <trkpt lat="43.67762" lon="1.66621">
        <ele>178</ele>
        <time>2017-10-11T08:35:13.000Z</time>
      </trkpt>
      <trkpt lat="43.67775" lon="1.66635">
        <ele>177</ele>
        <time>2017-10-11T08:35:27.000Z</time>
      </trkpt>
      <trkpt lat="43.67787" lon="1.66655">
        <ele>176</ele>
        <time>2017-10-11T08:35:43.000Z</time>
      </trkpt>
      <trkpt lat="43.67798" lon="1.66674">
        <ele>175</ele>
        <time>2017-10-11T08:35:57.000Z</time>
      </trkpt>
      <trkpt lat="43.67799" lon="1.66677">
        <ele>174</ele>
        <time>2017-10-11T08:36:0.000Z</time>
      </trkpt>
      <trkpt lat="43.67807" lon="1.66696">
        <ele>174</ele>
        <time>2017-10-11T08:36:17.000Z</time>
      </trkpt>
      <trkpt lat="43.67825" lon="1.66705">
        <ele>172</ele>
        <time>2017-10-11T08:36:32.000Z</time>
      </trkpt>
      <trkpt lat="43.67834" lon="1.66702">
        <ele>172</ele>
        <time>2017-10-11T08:36:39.000Z</time>
      </trkpt>
      <trkpt lat="43.67858" lon="1.66692">
        <ele>171</ele>
        <time>2017-10-11T08:37:1.000Z</time>
      </trkpt>
      <trkpt lat="43.67859" lon="1.66692">
        <ele>171</ele>
        <time>2017-10-11T08:37:25.000Z</time>
      </trkpt>
      <trkpt lat="43.6786" lon="1.66692">
        <ele>171</ele>
        <time>2017-10-11T08:37:56.000Z</time>
      </trkpt>
      <trkpt lat="43.67865" lon="1.66688">
        <ele>172</ele>
        <time>2017-10-11T08:39:44.000Z</time>
      </trkpt>
      <trkpt lat="43.67869" lon="1.66674">
        <ele>172</ele>
        <time>2017-10-11T08:40:0.000Z</time>
      </trkpt>
      <trkpt lat="43.67869" lon="1.66664">
        <ele>172</ele>
        <time>2017-10-11T08:40:10.000Z</time>
      </trkpt>
      <trkpt lat="43.67868" lon="1.66654">
        <ele>172</ele>
        <time>2017-10-11T08:40:27.000Z</time>
      </trkpt>
      <trkpt lat="43.67867" lon="1.66639">
        <ele>172</ele>
        <time>2017-10-11T08:40:42.000Z</time>
      </trkpt>
      <trkpt lat="43.67866" lon="1.66616">
        <ele>173</ele>
        <time>2017-10-11T08:40:57.000Z</time>
      </trkpt>
      <trkpt lat="43.67863" lon="1.6659">
        <ele>173</ele>
        <time>2017-10-11T08:41:15.000Z</time>
      </trkpt>
      <trkpt lat="43.67863" lon="1.66558">
        <ele>173</ele>
        <time>2017-10-11T08:41:34.000Z</time>
      </trkpt>
      <trkpt lat="43.67859" lon="1.66528">
        <ele>174</ele>
        <time>2017-10-11T08:41:53.000Z</time>
      </trkpt>
      <trkpt lat="43.67857" lon="1.665">
        <ele>173</ele>
        <time>2017-10-11T08:42:10.000Z</time>
      </trkpt>
      <trkpt lat="43.67852" lon="1.66472">
        <ele>173</ele>
        <time>2017-10-11T08:42:28.000Z</time>
      </trkpt>
      <trkpt lat="43.67848" lon="1.66448">
        <ele>172</ele>
        <time>2017-10-11T08:42:46.000Z</time>
      </trkpt>
      <trkpt lat="43.67846" lon="1.66443">
        <ele>172</ele>
        <time>2017-10-11T08:42:51.000Z</time>
      </trkpt>
      <trkpt lat="43.6784" lon="1.66415">
        <ele>172</ele>
        <time>2017-10-11T08:43:8.000Z</time>
      </trkpt>
      <trkpt lat="43.67829" lon="1.66392">
        <ele>172</ele>
        <time>2017-10-11T08:43:24.000Z</time>
      </trkpt>
      <trkpt lat="43.67816" lon="1.66376">
        <ele>172</ele>
        <time>2017-10-11T08:43:39.000Z</time>
      </trkpt>
      <trkpt lat="43.67802" lon="1.66361">
        <ele>172</ele>
        <time>2017-10-11T08:43:54.000Z</time>
      </trkpt>
      <trkpt lat="43.67793" lon="1.66348">
        <ele>172</ele>
        <time>2017-10-11T08:44:6.000Z</time>
      </trkpt>
      <trkpt lat="43.67777" lon="1.66329">
        <ele>172</ele>
        <time>2017-10-11T08:44:25.000Z</time>
      </trkpt>
      <trkpt lat="43.67762" lon="1.66308">
        <ele>173</ele>
        <time>2017-10-11T08:44:40.000Z</time>
      </trkpt>
      <trkpt lat="43.67749" lon="1.66291">
        <ele>173</ele>
        <time>2017-10-11T08:44:54.000Z</time>
      </trkpt>
      <trkpt lat="43.67747" lon="1.6629">
        <ele>172</ele>
        <time>2017-10-11T08:44:56.000Z</time>
      </trkpt>
      <trkpt lat="43.67732" lon="1.66273">
        <ele>172</ele>
        <time>2017-10-11T08:45:11.000Z</time>
      </trkpt>
      <trkpt lat="43.67716" lon="1.66254">
        <ele>172</ele>
        <time>2017-10-11T08:45:26.000Z</time>
      </trkpt>
      <trkpt lat="43.67701" lon="1.66236">
        <ele>172</ele>
        <time>2017-10-11T08:45:41.000Z</time>
      </trkpt>
      <trkpt lat="43.67687" lon="1.66218">
        <ele>172</ele>
        <time>2017-10-11T08:45:55.000Z</time>
      </trkpt>
      <trkpt lat="43.67669" lon="1.66201">
        <ele>171</ele>
        <time>2017-10-11T08:46:11.000Z</time>
      </trkpt>
      <trkpt lat="43.67662" lon="1.66194">
        <ele>171</ele>
        <time>2017-10-11T08:46:17.000Z</time>
      </trkpt>
      <trkpt lat="43.6767" lon="1.66188">
        <ele>172</ele>
        <time>2017-10-11T08:46:31.000Z</time>
      </trkpt>
      <trkpt lat="43.67672" lon="1.66188">
        <ele>172</ele>
        <time>2017-10-11T08:46:33.000Z</time>
      </trkpt>
      <trkpt lat="43.67692" lon="1.66186">
        <ele>174</ele>
        <time>2017-10-11T08:46:49.000Z</time>
      </trkpt>
      <trkpt lat="43.67705" lon="1.66186">
        <ele>175</ele>
        <time>2017-10-11T08:47:3.000Z</time>
      </trkpt>
      <trkpt lat="43.67717" lon="1.66187">
        <ele>176</ele>
        <time>2017-10-11T08:47:18.000Z</time>
      </trkpt>
      <trkpt lat="43.67728" lon="1.66186">
        <ele>177</ele>
        <time>2017-10-11T08:47:34.000Z</time>
      </trkpt>
      <trkpt lat="43.6774" lon="1.66182">
        <ele>179</ele>
        <time>2017-10-11T08:47:49.000Z</time>
      </trkpt>
      <trkpt lat="43.6775" lon="1.66182">
        <ele>181</ele>
        <time>2017-10-11T08:48:5.000Z</time>
      </trkpt>
      <trkpt lat="43.67762" lon="1.66181">
        <ele>182</ele>
        <time>2017-10-11T08:48:20.000Z</time>
      </trkpt>
      <trkpt lat="43.67773" lon="1.66181">
        <ele>185</ele>
        <time>2017-10-11T08:48:36.000Z</time>
      </trkpt>
      <trkpt lat="43.67782" lon="1.66181">
        <ele>187</ele>
        <time>2017-10-11T08:48:51.000Z</time>
      </trkpt>
      <trkpt lat="43.67792" lon="1.6618">
        <ele>189</ele>
        <time>2017-10-11T08:49:5.000Z</time>
      </trkpt>
      <trkpt lat="43.67802" lon="1.6618">
        <ele>191</ele>
        <time>2017-10-11T08:49:19.000Z</time>
      </trkpt>
      <trkpt lat="43.67812" lon="1.66179">
        <ele>194</ele>
        <time>2017-10-11T08:49:36.000Z</time>
      </trkpt>
      <trkpt lat="43.67826" lon="1.66179">
        <ele>197</ele>
        <time>2017-10-11T08:49:51.000Z</time>
      </trkpt>
      <trkpt lat="43.67835" lon="1.6618">
        <ele>199</ele>
        <time>2017-10-11T08:50:4.000Z</time>
      </trkpt>
      <trkpt lat="43.67847" lon="1.6618">
        <ele>202</ele>
        <time>2017-10-11T08:50:21.000Z</time>
      </trkpt>
      <trkpt lat="43.67859" lon="1.66179">
        <ele>203</ele>
        <time>2017-10-11T08:50:36.000Z</time>
      </trkpt>
      <trkpt lat="43.67871" lon="1.66175">
        <ele>205</ele>
        <time>2017-10-11T08:50:52.000Z</time>
      </trkpt>
      <trkpt lat="43.67888" lon="1.6617">
        <ele>208</ele>
        <time>2017-10-11T08:51:10.000Z</time>
      </trkpt>
      <trkpt lat="43.67905" lon="1.66165">
        <ele>209</ele>
        <time>2017-10-11T08:51:29.000Z</time>
      </trkpt>
      <trkpt lat="43.67918" lon="1.66161">
        <ele>210</ele>
        <time>2017-10-11T08:51:44.000Z</time>
      </trkpt>
      <trkpt lat="43.6792" lon="1.6616">
        <ele>210</ele>
        <time>2017-10-11T08:52:18.000Z</time>
      </trkpt>
      <trkpt lat="43.67921" lon="1.6616">
        <ele>210</ele>
        <time>2017-10-11T08:54:21.000Z</time>
      </trkpt>
      <trkpt lat="43.67929" lon="1.66158">
        <ele>210</ele>
        <time>2017-10-11T08:54:36.000Z</time>
      </trkpt>
      <trkpt lat="43.67949" lon="1.66152">
        <ele>210</ele>
        <time>2017-10-11T08:54:56.000Z</time>
      </trkpt>
      <trkpt lat="43.67965" lon="1.66149">
        <ele>209</ele>
        <time>2017-10-11T08:55:13.000Z</time>
      </trkpt>
      <trkpt lat="43.67979" lon="1.66142">
        <ele>209</ele>
        <time>2017-10-11T08:55:27.000Z</time>
      </trkpt>
      <trkpt lat="43.67997" lon="1.66136">
        <ele>209</ele>
        <time>2017-10-11T08:55:43.000Z</time>
      </trkpt>
      <trkpt lat="43.68013" lon="1.66133">
        <ele>209</ele>
        <time>2017-10-11T08:56:0.000Z</time>
      </trkpt>
      <trkpt lat="43.6803" lon="1.66136">
        <ele>209</ele>
        <time>2017-10-11T08:56:19.000Z</time>
      </trkpt>
      <trkpt lat="43.68047" lon="1.66139">
        <ele>209</ele>
        <time>2017-10-11T08:56:35.000Z</time>
      </trkpt>
      <trkpt lat="43.68064" lon="1.66138">
        <ele>209</ele>
        <time>2017-10-11T08:56:51.000Z</time>
      </trkpt>
      <trkpt lat="43.68067" lon="1.66139">
        <ele>209</ele>
        <time>2017-10-11T08:56:53.000Z</time>
      </trkpt>
      <trkpt lat="43.68082" lon="1.66139">
        <ele>209</ele>
        <time>2017-10-11T08:57:9.000Z</time>
      </trkpt>
      <trkpt lat="43.68099" lon="1.66134">
        <ele>210</ele>
        <time>2017-10-11T08:57:26.000Z</time>
      </trkpt>
      <trkpt lat="43.68115" lon="1.66132">
        <ele>210</ele>
        <time>2017-10-11T08:57:42.000Z</time>
      </trkpt>
      <trkpt lat="43.68134" lon="1.66125">
        <ele>212</ele>
        <time>2017-10-11T08:57:58.000Z</time>
      </trkpt>
      <trkpt lat="43.6815" lon="1.66123">
        <ele>213</ele>
        <time>2017-10-11T08:58:13.000Z</time>
      </trkpt>
      <trkpt lat="43.68152" lon="1.66122">
        <ele>213</ele>
        <time>2017-10-11T08:58:15.000Z</time>
      </trkpt>
      <trkpt lat="43.68156" lon="1.66121">
        <ele>213</ele>
        <time>2017-10-11T08:58:19.000Z</time>
      </trkpt>
      <trkpt lat="43.68159" lon="1.66121">
        <ele>213</ele>
        <time>2017-10-11T08:58:22.000Z</time>
      </trkpt>
      <trkpt lat="43.68173" lon="1.66119">
        <ele>214</ele>
        <time>2017-10-11T08:58:37.000Z</time>
      </trkpt>
      <trkpt lat="43.68185" lon="1.66116">
        <ele>215</ele>
        <time>2017-10-11T08:58:48.000Z</time>
      </trkpt>
      <trkpt lat="43.68206" lon="1.6612">
        <ele>215</ele>
        <time>2017-10-11T08:59:7.000Z</time>
      </trkpt>
      <trkpt lat="43.68227" lon="1.66123">
        <ele>216</ele>
        <time>2017-10-11T08:59:24.000Z</time>
      </trkpt>
      <trkpt lat="43.68231" lon="1.66125">
        <ele>216</ele>
        <time>2017-10-11T08:59:27.000Z</time>
      </trkpt>
      <trkpt lat="43.68247" lon="1.66136">
        <ele>215</ele>
        <time>2017-10-11T08:59:43.000Z</time>
      </trkpt>
      <trkpt lat="43.68258" lon="1.66143">
        <ele>215</ele>
        <time>2017-10-11T08:59:55.000Z</time>
      </trkpt>
      <trkpt lat="43.68273" lon="1.66147">
        <ele>216</ele>
        <time>2017-10-11T09:00:11.000Z</time>
      </trkpt>
      <trkpt lat="43.68278" lon="1.66149">
        <ele>216</ele>
        <time>2017-10-11T09:00:16.000Z</time>
      </trkpt>
      <trkpt lat="43.68294" lon="1.66151">
        <ele>217</ele>
        <time>2017-10-11T09:00:30.000Z</time>
      </trkpt>
      <trkpt lat="43.68306" lon="1.66152">
        <ele>218</ele>
        <time>2017-10-11T09:00:44.000Z</time>
      </trkpt>
      <trkpt lat="43.68321" lon="1.66146">
        <ele>219</ele>
        <time>2017-10-11T09:01:3.000Z</time>
      </trkpt>
      <trkpt lat="43.68333" lon="1.6614">
        <ele>221</ele>
        <time>2017-10-11T09:01:13.000Z</time>
      </trkpt>
      <trkpt lat="43.68356" lon="1.66137">
        <ele>222</ele>
        <time>2017-10-11T09:01:30.000Z</time>
      </trkpt>
      <trkpt lat="43.68381" lon="1.66139">
        <ele>221</ele>
        <time>2017-10-11T09:01:47.000Z</time>
      </trkpt>
      <trkpt lat="43.68399" lon="1.66146">
        <ele>221</ele>
        <time>2017-10-11T09:02:3.000Z</time>
      </trkpt>
      <trkpt lat="43.68411" lon="1.66153">
        <ele>221</ele>
        <time>2017-10-11T09:02:17.000Z</time>
      </trkpt>
      <trkpt lat="43.68434" lon="1.66175">
        <ele>222</ele>
        <time>2017-10-11T09:02:39.000Z</time>
      </trkpt>
      <trkpt lat="43.68453" lon="1.66183">
        <ele>224</ele>
        <time>2017-10-11T09:02:55.000Z</time>
      </trkpt>
      <trkpt lat="43.68477" lon="1.66169">
        <ele>225</ele>
        <time>2017-10-11T09:03:15.000Z</time>
      </trkpt>
      <trkpt lat="43.6849" lon="1.66161">
        <ele>225</ele>
        <time>2017-10-11T09:03:27.000Z</time>
      </trkpt>
      <trkpt lat="43.68511" lon="1.6615">
        <ele>224</ele>
        <time>2017-10-11T09:03:45.000Z</time>
      </trkpt>
      <trkpt lat="43.68537" lon="1.66141">
        <ele>224</ele>
        <time>2017-10-11T09:04:5.000Z</time>
      </trkpt>
      <trkpt lat="43.68559" lon="1.66136">
        <ele>224</ele>
        <time>2017-10-11T09:04:23.000Z</time>
      </trkpt>
      <trkpt lat="43.68562" lon="1.66136">
        <ele>224</ele>
        <time>2017-10-11T09:04:26.000Z</time>
      </trkpt>
      <trkpt lat="43.68581" lon="1.6613">
        <ele>223</ele>
        <time>2017-10-11T09:04:42.000Z</time>
      </trkpt>
      <trkpt lat="43.68602" lon="1.66116">
        <ele>222</ele>
        <time>2017-10-11T09:05:1.000Z</time>
      </trkpt>
      <trkpt lat="43.68628" lon="1.66102">
        <ele>222</ele>
        <time>2017-10-11T09:05:23.000Z</time>
      </trkpt>
      <trkpt lat="43.68648" lon="1.66089">
        <ele>222</ele>
        <time>2017-10-11T09:05:40.000Z</time>
      </trkpt>
      <trkpt lat="43.68664" lon="1.66074">
        <ele>221</ele>
        <time>2017-10-11T09:05:57.000Z</time>
      </trkpt>
      <trkpt lat="43.68685" lon="1.66053">
        <ele>219</ele>
        <time>2017-10-11T09:06:18.000Z</time>
      </trkpt>
      <trkpt lat="43.68703" lon="1.66039">
        <ele>219</ele>
        <time>2017-10-11T09:06:37.000Z</time>
      </trkpt>
      <trkpt lat="43.68723" lon="1.66032">
        <ele>218</ele>
        <time>2017-10-11T09:06:55.000Z</time>
      </trkpt>
      <trkpt lat="43.68747" lon="1.66016">
        <ele>217</ele>
        <time>2017-10-11T09:07:17.000Z</time>
      </trkpt>
      <trkpt lat="43.68766" lon="1.65999">
        <ele>216</ele>
        <time>2017-10-11T09:07:36.000Z</time>
      </trkpt>
      <trkpt lat="43.68781" lon="1.6598">
        <ele>214</ele>
        <time>2017-10-11T09:07:53.000Z</time>
      </trkpt>
      <trkpt lat="43.68795" lon="1.65958">
        <ele>214</ele>
        <time>2017-10-11T09:08:12.000Z</time>
      </trkpt>
      <trkpt lat="43.68804" lon="1.6594">
        <ele>213</ele>
        <time>2017-10-11T09:08:27.000Z</time>
      </trkpt>
      <trkpt lat="43.68815" lon="1.65916">
        <ele>212</ele>
        <time>2017-10-11T09:08:45.000Z</time>
      </trkpt>
      <trkpt lat="43.68831" lon="1.65884">
        <ele>211</ele>
        <time>2017-10-11T09:09:6.000Z</time>
      </trkpt>
      <trkpt lat="43.68841" lon="1.6586">
        <ele>210</ele>
        <time>2017-10-11T09:09:25.000Z</time>
      </trkpt>
      <trkpt lat="43.68854" lon="1.65837">
        <ele>210</ele>
        <time>2017-10-11T09:09:43.000Z</time>
      </trkpt>
      <trkpt lat="43.68863" lon="1.65814">
        <ele>209</ele>
        <time>2017-10-11T09:10:1.000Z</time>
      </trkpt>
      <trkpt lat="43.68876" lon="1.65787">
        <ele>210</ele>
        <time>2017-10-11T09:10:22.000Z</time>
      </trkpt>
      <trkpt lat="43.68886" lon="1.65762">
        <ele>209</ele>
        <time>2017-10-11T09:10:39.000Z</time>
      </trkpt>
      <trkpt lat="43.68897" lon="1.65734">
        <ele>207</ele>
        <time>2017-10-11T09:10:59.000Z</time>
      </trkpt>
      <trkpt lat="43.68907" lon="1.65708">
        <ele>206</ele>
        <time>2017-10-11T09:11:18.000Z</time>
      </trkpt>
      <trkpt lat="43.68917" lon="1.65684">
        <ele>205</ele>
        <time>2017-10-11T09:11:36.000Z</time>
      </trkpt>
      <trkpt lat="43.68929" lon="1.65652">
        <ele>204</ele>
        <time>2017-10-11T09:11:57.000Z</time>
      </trkpt>
      <trkpt lat="43.68939" lon="1.65628">
        <ele>203</ele>
        <time>2017-10-11T09:12:16.000Z</time>
      </trkpt>
      <trkpt lat="43.68947" lon="1.65603">
        <ele>203</ele>
        <time>2017-10-11T09:12:33.000Z</time>
      </trkpt>
      <trkpt lat="43.68956" lon="1.65581">
        <ele>202</ele>
        <time>2017-10-11T09:12:50.000Z</time>
      </trkpt>
      <trkpt lat="43.68957" lon="1.65579">
        <ele>202</ele>
        <time>2017-10-11T09:12:52.000Z</time>
      </trkpt>
      <trkpt lat="43.68958" lon="1.65576">
        <ele>202</ele>
        <time>2017-10-11T09:12:54.000Z</time>
      </trkpt>
      <trkpt lat="43.68962" lon="1.65561">
        <ele>202</ele>
        <time>2017-10-11T09:13:5.000Z</time>
      </trkpt>
      <trkpt lat="43.6897" lon="1.65542">
        <ele>202</ele>
        <time>2017-10-11T09:13:20.000Z</time>
      </trkpt>
      <trkpt lat="43.68979" lon="1.65518">
        <ele>202</ele>
        <time>2017-10-11T09:13:38.000Z</time>
      </trkpt>
      <trkpt lat="43.6898" lon="1.65515">
        <ele>202</ele>
        <time>2017-10-11T09:13:41.000Z</time>
      </trkpt>
      <trkpt lat="43.68989" lon="1.65488">
        <ele>201</ele>
        <time>2017-10-11T09:13:59.000Z</time>
      </trkpt>
      <trkpt lat="43.68997" lon="1.65463">
        <ele>201</ele>
        <time>2017-10-11T09:14:16.000Z</time>
      </trkpt>
      <trkpt lat="43.68998" lon="1.65459">
        <ele>201</ele>
        <time>2017-10-11T09:14:19.000Z</time>
      </trkpt>
      <trkpt lat="43.69" lon="1.65454">
        <ele>201</ele>
        <time>2017-10-11T09:14:23.000Z</time>
      </trkpt>
      <trkpt lat="43.69004" lon="1.65444">
        <ele>201</ele>
        <time>2017-10-11T09:14:31.000Z</time>
      </trkpt>
      <trkpt lat="43.69013" lon="1.6542">
        <ele>201</ele>
        <time>2017-10-11T09:14:48.000Z</time>
      </trkpt>
      <trkpt lat="43.69023" lon="1.65391">
        <ele>200</ele>
        <time>2017-10-11T09:15:8.000Z</time>
      </trkpt>
      <trkpt lat="43.69024" lon="1.6539">
        <ele>199</ele>
        <time>2017-10-11T09:15:9.000Z</time>
      </trkpt>
      <trkpt lat="43.69034" lon="1.65365">
        <ele>197</ele>
        <time>2017-10-11T09:15:27.000Z</time>
      </trkpt>
      <trkpt lat="43.69041" lon="1.65343">
        <ele>196</ele>
        <time>2017-10-11T09:15:42.000Z</time>
      </trkpt>
      <trkpt lat="43.69051" lon="1.65313">
        <ele>195</ele>
        <time>2017-10-11T09:16:3.000Z</time>
      </trkpt>
      <trkpt lat="43.69055" lon="1.653">
        <ele>195</ele>
        <time>2017-10-11T09:16:13.000Z</time>
      </trkpt>
      <trkpt lat="43.69057" lon="1.65296">
        <ele>195</ele>
        <time>2017-10-11T09:16:17.000Z</time>
      </trkpt>
      <trkpt lat="43.69062" lon="1.65282">
        <ele>194</ele>
        <time>2017-10-11T09:16:35.000Z</time>
      </trkpt>
      <trkpt lat="43.69061" lon="1.65287">
        <ele>194</ele>
        <time>2017-10-11T09:16:46.000Z</time>
      </trkpt>
      <trkpt lat="43.69063" lon="1.6529">
        <ele>194</ele>
        <time>2017-10-11T09:17:2.000Z</time>
      </trkpt>
      <trkpt lat="43.69063" lon="1.6529">
        <ele>194</ele>
        <time>2017-10-11T09:18:17.000Z</time>
      </trkpt>
      <trkpt lat="43.69062" lon="1.65287">
        <ele>194</ele>
        <time>2017-10-11T09:18:27.000Z</time>
      </trkpt>
      <trkpt lat="43.69062" lon="1.65287">
        <ele>194</ele>
        <time>2017-10-11T09:18:44.000Z</time>
      </trkpt>
      <trkpt lat="43.69062" lon="1.65282">
        <ele>194</ele>
        <time>2017-10-11T09:20:4.000Z</time>
      </trkpt>
      <trkpt lat="43.69068" lon="1.65273">
        <ele>194</ele>
        <time>2017-10-11T09:20:19.000Z</time>
      </trkpt>
      <trkpt lat="43.69079" lon="1.65259">
        <ele>193</ele>
        <time>2017-10-11T09:20:36.000Z</time>
      </trkpt>
      <trkpt lat="43.69086" lon="1.65257">
        <ele>193</ele>
        <time>2017-10-11T09:20:45.000Z</time>
      </trkpt>
      <trkpt lat="43.69107" lon="1.6525">
        <ele>192</ele>
        <time>2017-10-11T09:21:8.000Z</time>
      </trkpt>
      <trkpt lat="43.69129" lon="1.65249">
        <ele>191</ele>
        <time>2017-10-11T09:21:27.000Z</time>
      </trkpt>
      <trkpt lat="43.69152" lon="1.65254">
        <ele>189</ele>
        <time>2017-10-11T09:21:50.000Z</time>
      </trkpt>
      <trkpt lat="43.6917" lon="1.6526">
        <ele>186</ele>
        <time>2017-10-11T09:22:6.000Z</time>
      </trkpt>
      <trkpt lat="43.69188" lon="1.65268">
        <ele>184</ele>
        <time>2017-10-11T09:22:24.000Z</time>
      </trkpt>
      <trkpt lat="43.69206" lon="1.65278">
        <ele>182</ele>
        <time>2017-10-11T09:22:40.000Z</time>
      </trkpt>
      <trkpt lat="43.6922" lon="1.65286">
        <ele>180</ele>
        <time>2017-10-11T09:22:56.000Z</time>
      </trkpt>
      <trkpt lat="43.69243" lon="1.65299">
        <ele>177</ele>
        <time>2017-10-11T09:23:16.000Z</time>
      </trkpt>
      <trkpt lat="43.69248" lon="1.65301">
        <ele>177</ele>
        <time>2017-10-11T09:23:20.000Z</time>
      </trkpt>
      <trkpt lat="43.69267" lon="1.65309">
        <ele>174</ele>
        <time>2017-10-11T09:23:38.000Z</time>
      </trkpt>
      <trkpt lat="43.69276" lon="1.65302">
        <ele>173</ele>
        <time>2017-10-11T09:23:48.000Z</time>
      </trkpt>
      <trkpt lat="43.69275" lon="1.65273">
        <ele>174</ele>
        <time>2017-10-11T09:24:7.000Z</time>
      </trkpt>
      <trkpt lat="43.69275" lon="1.65248">
        <ele>174</ele>
        <time>2017-10-11T09:24:22.000Z</time>
      </trkpt>
      <trkpt lat="43.69278" lon="1.65227">
        <ele>174</ele>
        <time>2017-10-11T09:24:37.000Z</time>
      </trkpt>
      <trkpt lat="43.69284" lon="1.652">
        <ele>173</ele>
        <time>2017-10-11T09:24:55.000Z</time>
      </trkpt>
      <trkpt lat="43.69289" lon="1.65173">
        <ele>172</ele>
        <time>2017-10-11T09:25:12.000Z</time>
      </trkpt>
      <trkpt lat="43.69295" lon="1.65147">
        <ele>172</ele>
        <time>2017-10-11T09:25:29.000Z</time>
      </trkpt>
      <trkpt lat="43.69298" lon="1.65132">
        <ele>172</ele>
        <time>2017-10-11T09:25:39.000Z</time>
      </trkpt>
      <trkpt lat="43.69299" lon="1.65109">
        <ele>172</ele>
        <time>2017-10-11T09:25:55.000Z</time>
      </trkpt>
      <trkpt lat="43.69304" lon="1.65085">
        <ele>171</ele>
        <time>2017-10-11T09:26:12.000Z</time>
      </trkpt>
      <trkpt lat="43.69301" lon="1.65075">
        <ele>171</ele>
        <time>2017-10-11T09:26:18.000Z</time>
      </trkpt>
      <trkpt lat="43.69316" lon="1.6507">
        <ele>169</ele>
        <time>2017-10-11T09:26:33.000Z</time>
      </trkpt>
      <trkpt lat="43.69318" lon="1.6507">
        <ele>169</ele>
        <time>2017-10-11T09:26:35.000Z</time>
      </trkpt>
      <trkpt lat="43.69339" lon="1.65068">
        <ele>167</ele>
        <time>2017-10-11T09:26:55.000Z</time>
      </trkpt>
      <trkpt lat="43.69363" lon="1.65067">
        <ele>164</ele>
        <time>2017-10-11T09:27:14.000Z</time>
      </trkpt>
      <trkpt lat="43.69389" lon="1.65064">
        <ele>162</ele>
        <time>2017-10-11T09:27:37.000Z</time>
      </trkpt>
      <trkpt lat="43.69414" lon="1.65061">
        <ele>160</ele>
        <time>2017-10-11T09:27:58.000Z</time>
      </trkpt>
      <trkpt lat="43.69437" lon="1.6506">
        <ele>161</ele>
        <time>2017-10-11T09:28:18.000Z</time>
      </trkpt>
      <trkpt lat="43.69462" lon="1.6506">
        <ele>162</ele>
        <time>2017-10-11T09:28:39.000Z</time>
      </trkpt>
      <trkpt lat="43.69492" lon="1.65058">
        <ele>165</ele>
        <time>2017-10-11T09:29:3.000Z</time>
      </trkpt>
      <trkpt lat="43.69519" lon="1.65056">
        <ele>168</ele>
        <time>2017-10-11T09:29:25.000Z</time>
      </trkpt>
      <trkpt lat="43.69536" lon="1.65062">
        <ele>170</ele>
        <time>2017-10-11T09:29:41.000Z</time>
      </trkpt>
      <trkpt lat="43.6954" lon="1.65089">
        <ele>170</ele>
        <time>2017-10-11T09:29:57.000Z</time>
      </trkpt>
      <trkpt lat="43.69545" lon="1.65117">
        <ele>170</ele>
        <time>2017-10-11T09:30:14.000Z</time>
      </trkpt>
      <trkpt lat="43.69546" lon="1.65118">
        <ele>170</ele>
        <time>2017-10-11T09:30:15.000Z</time>
      </trkpt>
      <trkpt lat="43.69549" lon="1.65142">
        <ele>171</ele>
        <time>2017-10-11T09:30:31.000Z</time>
      </trkpt>
      <trkpt lat="43.69549" lon="1.65168">
        <ele>171</ele>
        <time>2017-10-11T09:30:46.000Z</time>
      </trkpt>
      <trkpt lat="43.69549" lon="1.65177">
        <ele>171</ele>
        <time>2017-10-11T09:30:52.000Z</time>
      </trkpt>
      <trkpt lat="43.69544" lon="1.65202">
        <ele>172</ele>
        <time>2017-10-11T09:31:10.000Z</time>
      </trkpt>
      <trkpt lat="43.69542" lon="1.65221">
        <ele>172</ele>
        <time>2017-10-11T09:31:23.000Z</time>
      </trkpt>
      <trkpt lat="43.69536" lon="1.6524">
        <ele>172</ele>
        <time>2017-10-11T09:31:37.000Z</time>
      </trkpt>
      <trkpt lat="43.69536" lon="1.65265">
        <ele>172</ele>
        <time>2017-10-11T09:31:53.000Z</time>
      </trkpt>
      <trkpt lat="43.69533" lon="1.65295">
        <ele>172</ele>
        <time>2017-10-11T09:32:11.000Z</time>
      </trkpt>
      <trkpt lat="43.69529" lon="1.6532">
        <ele>172</ele>
        <time>2017-10-11T09:32:29.000Z</time>
      </trkpt>
      <trkpt lat="43.69522" lon="1.65341">
        <ele>171</ele>
        <time>2017-10-11T09:32:42.000Z</time>
      </trkpt>
      <trkpt lat="43.69526" lon="1.65358">
        <ele>172</ele>
        <time>2017-10-11T09:32:55.000Z</time>
      </trkpt>
      <trkpt lat="43.69525" lon="1.65361">
        <ele>172</ele>
        <time>2017-10-11T09:32:57.000Z</time>
      </trkpt>
      <trkpt lat="43.69513" lon="1.65385">
        <ele>171</ele>
        <time>2017-10-11T09:33:13.000Z</time>
      </trkpt>
      <trkpt lat="43.69513" lon="1.65416">
        <ele>171</ele>
        <time>2017-10-11T09:33:33.000Z</time>
      </trkpt>
      <trkpt lat="43.69513" lon="1.65446">
        <ele>172</ele>
        <time>2017-10-11T09:33:51.000Z</time>
      </trkpt>
      <trkpt lat="43.69516" lon="1.65473">
        <ele>173</ele>
        <time>2017-10-11T09:34:8.000Z</time>
      </trkpt>
      <trkpt lat="43.69514" lon="1.65503">
        <ele>173</ele>
        <time>2017-10-11T09:34:28.000Z</time>
      </trkpt>
      <trkpt lat="43.69509" lon="1.65531">
        <ele>173</ele>
        <time>2017-10-11T09:34:45.000Z</time>
      </trkpt>
      <trkpt lat="43.69502" lon="1.65555">
        <ele>172</ele>
        <time>2017-10-11T09:35:2.000Z</time>
      </trkpt>
      <trkpt lat="43.69492" lon="1.65582">
        <ele>172</ele>
        <time>2017-10-11T09:35:20.000Z</time>
      </trkpt>
      <trkpt lat="43.69483" lon="1.65605">
        <ele>171</ele>
        <time>2017-10-11T09:35:38.000Z</time>
      </trkpt>
      <trkpt lat="43.69477" lon="1.65639">
        <ele>170</ele>
        <time>2017-10-11T09:35:59.000Z</time>
      </trkpt>
      <trkpt lat="43.69481" lon="1.65666">
        <ele>170</ele>
        <time>2017-10-11T09:36:17.000Z</time>
      </trkpt>
      <trkpt lat="43.69496" lon="1.65686">
        <ele>170</ele>
        <time>2017-10-11T09:36:35.000Z</time>
      </trkpt>
      <trkpt lat="43.69514" lon="1.65685">
        <ele>171</ele>
        <time>2017-10-11T09:36:51.000Z</time>
      </trkpt>
      <trkpt lat="43.69533" lon="1.65679">
        <ele>171</ele>
        <time>2017-10-11T09:37:8.000Z</time>
      </trkpt>
      <trkpt lat="43.69546" lon="1.65669">
        <ele>171</ele>
        <time>2017-10-11T09:37:24.000Z</time>
      </trkpt>
      <trkpt lat="43.69561" lon="1.65658">
        <ele>171</ele>
        <time>2017-10-11T09:37:39.000Z</time>
      </trkpt>
      <trkpt lat="43.69572" lon="1.65652">
        <ele>171</ele>
        <time>2017-10-11T09:37:56.000Z</time>
      </trkpt>
      <trkpt lat="43.69599" lon="1.65639">
        <ele>171</ele>
        <time>2017-10-11T09:38:11.000Z</time>
      </trkpt>
      <trkpt lat="43.69614" lon="1.65634">
        <ele>172</ele>
        <time>2017-10-11T09:38:28.000Z</time>
      </trkpt>
      <trkpt lat="43.69632" lon="1.65627">
        <ele>174</ele>
        <time>2017-10-11T09:38:42.000Z</time>
      </trkpt>
      <trkpt lat="43.69641" lon="1.65627">
        <ele>175</ele>
        <time>2017-10-11T09:38:50.000Z</time>
      </trkpt>
      <trkpt lat="43.69651" lon="1.6565">
        <ele>174</ele>
        <time>2017-10-11T09:39:6.000Z</time>
      </trkpt>
      <trkpt lat="43.69644" lon="1.65658">
        <ele>174</ele>
        <time>2017-10-11T09:39:14.000Z</time>
      </trkpt>
      <trkpt lat="43.69632" lon="1.65665">
        <ele>173</ele>
        <time>2017-10-11T09:39:26.000Z</time>
      </trkpt>
      <trkpt lat="43.69617" lon="1.65678">
        <ele>173</ele>
        <time>2017-10-11T09:39:41.000Z</time>
      </trkpt>
      <trkpt lat="43.69603" lon="1.65694">
        <ele>172</ele>
        <time>2017-10-11T09:39:57.000Z</time>
      </trkpt>
      <trkpt lat="43.69589" lon="1.65714">
        <ele>172</ele>
        <time>2017-10-11T09:40:16.000Z</time>
      </trkpt>
      <trkpt lat="43.69568" lon="1.65733">
        <ele>171</ele>
        <time>2017-10-11T09:40:35.000Z</time>
      </trkpt>
      <trkpt lat="43.69553" lon="1.65751">
        <ele>172</ele>
        <time>2017-10-11T09:40:53.000Z</time>
      </trkpt>
      <trkpt lat="43.6954" lon="1.65772">
        <ele>172</ele>
        <time>2017-10-11T09:41:9.000Z</time>
      </trkpt>
      <trkpt lat="43.69531" lon="1.65795">
        <ele>171</ele>
        <time>2017-10-11T09:41:25.000Z</time>
      </trkpt>
      <trkpt lat="43.6952" lon="1.65823">
        <ele>170</ele>
        <time>2017-10-11T09:41:45.000Z</time>
      </trkpt>
      <trkpt lat="43.69518" lon="1.65851">
        <ele>170</ele>
        <time>2017-10-11T09:42:2.000Z</time>
      </trkpt>
      <trkpt lat="43.69521" lon="1.65878">
        <ele>169</ele>
        <time>2017-10-11T09:42:20.000Z</time>
      </trkpt>
      <trkpt lat="43.69526" lon="1.65913">
        <ele>169</ele>
        <time>2017-10-11T09:42:42.000Z</time>
      </trkpt>
      <trkpt lat="43.69533" lon="1.65939">
        <ele>169</ele>
        <time>2017-10-11T09:43:0.000Z</time>
      </trkpt>
      <trkpt lat="43.69545" lon="1.65963">
        <ele>170</ele>
        <time>2017-10-11T09:43:18.000Z</time>
      </trkpt>
      <trkpt lat="43.69555" lon="1.65984">
        <ele>170</ele>
        <time>2017-10-11T09:43:35.000Z</time>
      </trkpt>
      <trkpt lat="43.6957" lon="1.6601">
        <ele>172</ele>
        <time>2017-10-11T09:43:55.000Z</time>
      </trkpt>
      <trkpt lat="43.6958" lon="1.66036">
        <ele>174</ele>
        <time>2017-10-11T09:44:14.000Z</time>
      </trkpt>
      <trkpt lat="43.69583" lon="1.66056">
        <ele>175</ele>
        <time>2017-10-11T09:44:26.000Z</time>
      </trkpt>
      <trkpt lat="43.69582" lon="1.66089">
        <ele>176</ele>
        <time>2017-10-11T09:44:47.000Z</time>
      </trkpt>
      <trkpt lat="43.69577" lon="1.66123">
        <ele>176</ele>
        <time>2017-10-11T09:45:7.000Z</time>
      </trkpt>
      <trkpt lat="43.69566" lon="1.66148">
        <ele>175</ele>
        <time>2017-10-11T09:45:26.000Z</time>
      </trkpt>
      <trkpt lat="43.69556" lon="1.66175">
        <ele>175</ele>
        <time>2017-10-11T09:45:43.000Z</time>
      </trkpt>
      <trkpt lat="43.69543" lon="1.66199">
        <ele>174</ele>
        <time>2017-10-11T09:46:1.000Z</time>
      </trkpt>
      <trkpt lat="43.6953" lon="1.66226">
        <ele>173</ele>
        <time>2017-10-11T09:46:20.000Z</time>
      </trkpt>
      <trkpt lat="43.69517" lon="1.66246">
        <ele>172</ele>
        <time>2017-10-11T09:46:36.000Z</time>
      </trkpt>
      <trkpt lat="43.69505" lon="1.66267">
        <ele>171</ele>
        <time>2017-10-11T09:46:53.000Z</time>
      </trkpt>
      <trkpt lat="43.6949" lon="1.66296">
        <ele>171</ele>
        <time>2017-10-11T09:47:13.000Z</time>
      </trkpt>
      <trkpt lat="43.69484" lon="1.66326">
        <ele>171</ele>
        <time>2017-10-11T09:47:32.000Z</time>
      </trkpt>
      <trkpt lat="43.69496" lon="1.66346">
        <ele>171</ele>
        <time>2017-10-11T09:47:49.000Z</time>
      </trkpt>
      <trkpt lat="43.69512" lon="1.66353">
        <ele>171</ele>
        <time>2017-10-11T09:48:3.000Z</time>
      </trkpt>
      <trkpt lat="43.69517" lon="1.66358">
        <ele>171</ele>
        <time>2017-10-11T09:48:19.000Z</time>
      </trkpt>
      <trkpt lat="43.69517" lon="1.66357">
        <ele>171</ele>
        <time>2017-10-11T09:50:26.000Z</time>
      </trkpt>
      <trkpt lat="43.69527" lon="1.66364">
        <ele>172</ele>
        <time>2017-10-11T09:52:39.000Z</time>
      </trkpt>
      <trkpt lat="43.69535" lon="1.66373">
        <ele>172</ele>
        <time>2017-10-11T09:52:53.000Z</time>
      </trkpt>
      <trkpt lat="43.69533" lon="1.66384">
        <ele>172</ele>
        <time>2017-10-11T09:53:5.000Z</time>
      </trkpt>
      <trkpt lat="43.69528" lon="1.66387">
        <ele>171</ele>
        <time>2017-10-11T09:53:10.000Z</time>
      </trkpt>
      <trkpt lat="43.69513" lon="1.66401">
        <ele>171</ele>
        <time>2017-10-11T09:53:26.000Z</time>
      </trkpt>
      <trkpt lat="43.69508" lon="1.66408">
        <ele>171</ele>
        <time>2017-10-11T09:53:33.000Z</time>
      </trkpt>
      <trkpt lat="43.69495" lon="1.66423">
        <ele>171</ele>
        <time>2017-10-11T09:53:50.000Z</time>
      </trkpt>
      <trkpt lat="43.69488" lon="1.66434">
        <ele>171</ele>
        <time>2017-10-11T09:53:59.000Z</time>
      </trkpt>
      <trkpt lat="43.69477" lon="1.66458">
        <ele>171</ele>
        <time>2017-10-11T09:54:18.000Z</time>
      </trkpt>
      <trkpt lat="43.69466" lon="1.66482">
        <ele>171</ele>
        <time>2017-10-11T09:54:35.000Z</time>
      </trkpt>
      <trkpt lat="43.69462" lon="1.66512">
        <ele>171</ele>
        <time>2017-10-11T09:54:55.000Z</time>
      </trkpt>
      <trkpt lat="43.69461" lon="1.66539">
        <ele>171</ele>
        <time>2017-10-11T09:55:13.000Z</time>
      </trkpt>
      <trkpt lat="43.69468" lon="1.66572">
        <ele>172</ele>
        <time>2017-10-11T09:55:34.000Z</time>
      </trkpt>
      <trkpt lat="43.69472" lon="1.66595">
        <ele>172</ele>
        <time>2017-10-11T09:55:52.000Z</time>
      </trkpt>
      <trkpt lat="43.69472" lon="1.66597">
        <ele>172</ele>
        <time>2017-10-11T09:55:54.000Z</time>
      </trkpt>
      <trkpt lat="43.69473" lon="1.66625">
        <ele>172</ele>
        <time>2017-10-11T09:56:12.000Z</time>
      </trkpt>
      <trkpt lat="43.69476" lon="1.66651">
        <ele>172</ele>
        <time>2017-10-11T09:56:30.000Z</time>
      </trkpt>
      <trkpt lat="43.69481" lon="1.66682">
        <ele>172</ele>
        <time>2017-10-11T09:56:49.000Z</time>
      </trkpt>
      <trkpt lat="43.69486" lon="1.66708">
        <ele>172</ele>
        <time>2017-10-11T09:57:7.000Z</time>
      </trkpt>
      <trkpt lat="43.6949" lon="1.66738">
        <ele>172</ele>
        <time>2017-10-11T09:57:25.000Z</time>
      </trkpt>
      <trkpt lat="43.69491" lon="1.66766">
        <ele>173</ele>
        <time>2017-10-11T09:57:43.000Z</time>
      </trkpt>
      <trkpt lat="43.69489" lon="1.66796">
        <ele>173</ele>
        <time>2017-10-11T09:58:2.000Z</time>
      </trkpt>
      <trkpt lat="43.69482" lon="1.66821">
        <ele>172</ele>
        <time>2017-10-11T09:58:20.000Z</time>
      </trkpt>
      <trkpt lat="43.69474" lon="1.66855">
        <ele>172</ele>
        <time>2017-10-11T09:58:41.000Z</time>
      </trkpt>
      <trkpt lat="43.69468" lon="1.66884">
        <ele>172</ele>
        <time>2017-10-11T09:59:0.000Z</time>
      </trkpt>
      <trkpt lat="43.69462" lon="1.66916">
        <ele>172</ele>
        <time>2017-10-11T09:59:20.000Z</time>
      </trkpt>
      <trkpt lat="43.69455" lon="1.66942">
        <ele>173</ele>
        <time>2017-10-11T09:59:37.000Z</time>
      </trkpt>
      <trkpt lat="43.69448" lon="1.66976">
        <ele>173</ele>
        <time>2017-10-11T09:59:58.000Z</time>
      </trkpt>
      <trkpt lat="43.69445" lon="1.67005">
        <ele>173</ele>
        <time>2017-10-11T10:00:16.000Z</time>
      </trkpt>
      <trkpt lat="43.6944" lon="1.67038">
        <ele>173</ele>
        <time>2017-10-11T10:00:35.000Z</time>
      </trkpt>
      <trkpt lat="43.69434" lon="1.67063">
        <ele>173</ele>
        <time>2017-10-11T10:00:51.000Z</time>
      </trkpt>
      <trkpt lat="43.69422" lon="1.67087">
        <ele>173</ele>
        <time>2017-10-11T10:01:8.000Z</time>
      </trkpt>
      <trkpt lat="43.69417" lon="1.67115">
        <ele>172</ele>
        <time>2017-10-11T10:01:26.000Z</time>
      </trkpt>
      <trkpt lat="43.69406" lon="1.67144">
        <ele>172</ele>
        <time>2017-10-11T10:01:44.000Z</time>
      </trkpt>
      <trkpt lat="43.69399" lon="1.67171">
        <ele>173</ele>
        <time>2017-10-11T10:02:3.000Z</time>
      </trkpt>
      <trkpt lat="43.69395" lon="1.67197">
        <ele>173</ele>
        <time>2017-10-11T10:02:16.000Z</time>
      </trkpt>
      <trkpt lat="43.69398" lon="1.6723">
        <ele>174</ele>
        <time>2017-10-11T10:02:34.000Z</time>
      </trkpt>
      <trkpt lat="43.69397" lon="1.67259">
        <ele>175</ele>
        <time>2017-10-11T10:02:53.000Z</time>
      </trkpt>
      <trkpt lat="43.69393" lon="1.67293">
        <ele>175</ele>
        <time>2017-10-11T10:03:13.000Z</time>
      </trkpt>
      <trkpt lat="43.69389" lon="1.67316">
        <ele>174</ele>
        <time>2017-10-11T10:03:29.000Z</time>
      </trkpt>
      <trkpt lat="43.69387" lon="1.67342">
        <ele>174</ele>
        <time>2017-10-11T10:03:45.000Z</time>
      </trkpt>
      <trkpt lat="43.69384" lon="1.67371">
        <ele>175</ele>
        <time>2017-10-11T10:04:5.000Z</time>
      </trkpt>
      <trkpt lat="43.69383" lon="1.67379">
        <ele>175</ele>
        <time>2017-10-11T10:04:11.000Z</time>
      </trkpt>
      <trkpt lat="43.69375" lon="1.67407">
        <ele>175</ele>
        <time>2017-10-11T10:04:30.000Z</time>
      </trkpt>
      <trkpt lat="43.69372" lon="1.67439">
        <ele>175</ele>
        <time>2017-10-11T10:04:50.000Z</time>
      </trkpt>
      <trkpt lat="43.69371" lon="1.67465">
        <ele>175</ele>
        <time>2017-10-11T10:05:7.000Z</time>
      </trkpt>
      <trkpt lat="43.69367" lon="1.67492">
        <ele>175</ele>
        <time>2017-10-11T10:05:26.000Z</time>
      </trkpt>
      <trkpt lat="43.69357" lon="1.67512">
        <ele>175</ele>
        <time>2017-10-11T10:05:41.000Z</time>
      </trkpt>
      <trkpt lat="43.69345" lon="1.67532">
        <ele>175</ele>
        <time>2017-10-11T10:05:57.000Z</time>
      </trkpt>
      <trkpt lat="43.69334" lon="1.67555">
        <ele>175</ele>
        <time>2017-10-11T10:06:14.000Z</time>
      </trkpt>
      <trkpt lat="43.69323" lon="1.67575">
        <ele>175</ele>
        <time>2017-10-11T10:06:30.000Z</time>
      </trkpt>
      <trkpt lat="43.69312" lon="1.67591">
        <ele>175</ele>
        <time>2017-10-11T10:06:45.000Z</time>
      </trkpt>
      <trkpt lat="43.69297" lon="1.67608">
        <ele>175</ele>
        <time>2017-10-11T10:07:1.000Z</time>
      </trkpt>
      <trkpt lat="43.69294" lon="1.6761">
        <ele>175</ele>
        <time>2017-10-11T10:07:5.000Z</time>
      </trkpt>
      <trkpt lat="43.6929" lon="1.67605">
        <ele>175</ele>
        <time>2017-10-11T10:07:9.000Z</time>
      </trkpt>
      <trkpt lat="43.69287" lon="1.67591">
        <ele>175</ele>
        <time>2017-10-11T10:07:25.000Z</time>
      </trkpt>
      <trkpt lat="43.69295" lon="1.67579">
        <ele>174</ele>
        <time>2017-10-11T10:07:34.000Z</time>
      </trkpt>
      <trkpt lat="43.69303" lon="1.67551">
        <ele>174</ele>
        <time>2017-10-11T10:07:53.000Z</time>
      </trkpt>
      <trkpt lat="43.69311" lon="1.67517">
        <ele>173</ele>
        <time>2017-10-11T10:08:14.000Z</time>
      </trkpt>
      <trkpt lat="43.69314" lon="1.67484">
        <ele>173</ele>
        <time>2017-10-11T10:08:35.000Z</time>
      </trkpt>
      <trkpt lat="43.69315" lon="1.67455">
        <ele>173</ele>
        <time>2017-10-11T10:08:53.000Z</time>
      </trkpt>
      <trkpt lat="43.69315" lon="1.67423">
        <ele>173</ele>
        <time>2017-10-11T10:09:13.000Z</time>
      </trkpt>
      <trkpt lat="43.69315" lon="1.67395">
        <ele>174</ele>
        <time>2017-10-11T10:09:32.000Z</time>
      </trkpt>
      <trkpt lat="43.69314" lon="1.67366">
        <ele>174</ele>
        <time>2017-10-11T10:09:51.000Z</time>
      </trkpt>
      <trkpt lat="43.69314" lon="1.6734">
        <ele>174</ele>
        <time>2017-10-11T10:10:8.000Z</time>
      </trkpt>
      <trkpt lat="43.69312" lon="1.67313">
        <ele>174</ele>
        <time>2017-10-11T10:10:26.000Z</time>
      </trkpt>
      <trkpt lat="43.69312" lon="1.67285">
        <ele>173</ele>
        <time>2017-10-11T10:10:43.000Z</time>
      </trkpt>
      <trkpt lat="43.69313" lon="1.67258">
        <ele>173</ele>
        <time>2017-10-11T10:11:0.000Z</time>
      </trkpt>
      <trkpt lat="43.69314" lon="1.67237">
        <ele>173</ele>
        <time>2017-10-11T10:11:16.000Z</time>
      </trkpt>
      <trkpt lat="43.69312" lon="1.67236">
        <ele>174</ele>
        <time>2017-10-11T10:11:42.000Z</time>
      </trkpt>
      <trkpt lat="43.69312" lon="1.67236">
        <ele>173</ele>
        <time>2017-10-11T10:12:30.000Z</time>
      </trkpt>
      <trkpt lat="43.69312" lon="1.67235">
        <ele>174</ele>
        <time>2017-10-11T10:13:5.000Z</time>
      </trkpt>
      <trkpt lat="43.69311" lon="1.67231">
        <ele>174</ele>
        <time>2017-10-11T10:13:34.000Z</time>
      </trkpt>
      <trkpt lat="43.69311" lon="1.67229">
        <ele>174</ele>
        <time>2017-10-11T10:15:49.000Z</time>
      </trkpt>
      <trkpt lat="43.69311" lon="1.67225">
        <ele>174</ele>
        <time>2017-10-11T10:42:24.000Z</time>
      </trkpt>
      <trkpt lat="43.69313" lon="1.67228">
        <ele>174</ele>
        <time>2017-10-11T10:43:37.000Z</time>
      </trkpt>
      <trkpt lat="43.69313" lon="1.67231">
        <ele>174</ele>
        <time>2017-10-11T10:44:6.000Z</time>
      </trkpt>
      <trkpt lat="43.69312" lon="1.67233">
        <ele>174</ele>
        <time>2017-10-11T10:44:33.000Z</time>
      </trkpt>
      <trkpt lat="43.69312" lon="1.67231">
        <ele>174</ele>
        <time>2017-10-11T10:45:0.000Z</time>
      </trkpt>
      <trkpt lat="43.69312" lon="1.67231">
        <ele>174</ele>
        <time>2017-10-11T10:47:38.000Z</time>
      </trkpt>
      <trkpt lat="43.69312" lon="1.67231">
        <ele>174</ele>
        <time>2017-10-11T10:48:54.000Z</time>
      </trkpt>
      <trkpt lat="43.69313" lon="1.6723">
        <ele>174</ele>
        <time>2017-10-11T10:50:37.000Z</time>
      </trkpt>
      <trkpt lat="43.69314" lon="1.67243">
        <ele>173</ele>
        <time>2017-10-11T10:51:56.000Z</time>
      </trkpt>
      <trkpt lat="43.69313" lon="1.67265">
        <ele>173</ele>
        <time>2017-10-11T10:52:17.000Z</time>
      </trkpt>
      <trkpt lat="43.69314" lon="1.6728">
        <ele>173</ele>
        <time>2017-10-11T10:52:32.000Z</time>
      </trkpt>
      <trkpt lat="43.69312" lon="1.67301">
        <ele>174</ele>
        <time>2017-10-11T10:52:49.000Z</time>
      </trkpt>
      <trkpt lat="43.69315" lon="1.67321">
        <ele>174</ele>
        <time>2017-10-11T10:53:4.000Z</time>
      </trkpt>
      <trkpt lat="43.69314" lon="1.67348">
        <ele>174</ele>
        <time>2017-10-11T10:53:25.000Z</time>
      </trkpt>
      <trkpt lat="43.69316" lon="1.67373">
        <ele>174</ele>
        <time>2017-10-11T10:53:44.000Z</time>
      </trkpt>
      <trkpt lat="43.69315" lon="1.67396">
        <ele>174</ele>
        <time>2017-10-11T10:54:2.000Z</time>
      </trkpt>
      <trkpt lat="43.69316" lon="1.6742">
        <ele>173</ele>
        <time>2017-10-11T10:54:20.000Z</time>
      </trkpt>
      <trkpt lat="43.69315" lon="1.67443">
        <ele>173</ele>
        <time>2017-10-11T10:54:37.000Z</time>
      </trkpt>
      <trkpt lat="43.69316" lon="1.67469">
        <ele>173</ele>
        <time>2017-10-11T10:54:57.000Z</time>
      </trkpt>
      <trkpt lat="43.69314" lon="1.67493">
        <ele>173</ele>
        <time>2017-10-11T10:55:14.000Z</time>
      </trkpt>
      <trkpt lat="43.69312" lon="1.67522">
        <ele>174</ele>
        <time>2017-10-11T10:55:35.000Z</time>
      </trkpt>
      <trkpt lat="43.69307" lon="1.67557">
        <ele>174</ele>
        <time>2017-10-11T10:55:56.000Z</time>
      </trkpt>
      <trkpt lat="43.69298" lon="1.67575">
        <ele>174</ele>
        <time>2017-10-11T10:56:16.000Z</time>
      </trkpt>
      <trkpt lat="43.69296" lon="1.67581">
        <ele>174</ele>
        <time>2017-10-11T10:56:22.000Z</time>
      </trkpt>
      <trkpt lat="43.69276" lon="1.676">
        <ele>175</ele>
        <time>2017-10-11T10:56:43.000Z</time>
      </trkpt>
      <trkpt lat="43.6927" lon="1.67619">
        <ele>176</ele>
        <time>2017-10-11T10:57:0.000Z</time>
      </trkpt>
      <trkpt lat="43.6926" lon="1.67646">
        <ele>176</ele>
        <time>2017-10-11T10:57:20.000Z</time>
      </trkpt>
      <trkpt lat="43.69258" lon="1.67658">
        <ele>176</ele>
        <time>2017-10-11T10:57:30.000Z</time>
      </trkpt>
      <trkpt lat="43.69252" lon="1.67688">
        <ele>176</ele>
        <time>2017-10-11T10:57:50.000Z</time>
      </trkpt>
      <trkpt lat="43.69248" lon="1.67717">
        <ele>176</ele>
        <time>2017-10-11T10:58:11.000Z</time>
      </trkpt>
      <trkpt lat="43.69242" lon="1.67745">
        <ele>177</ele>
        <time>2017-10-11T10:58:30.000Z</time>
      </trkpt>
      <trkpt lat="43.69239" lon="1.67768">
        <ele>177</ele>
        <time>2017-10-11T10:58:50.000Z</time>
      </trkpt>
      <trkpt lat="43.69235" lon="1.67799">
        <ele>177</ele>
        <time>2017-10-11T10:59:11.000Z</time>
      </trkpt>
      <trkpt lat="43.6923" lon="1.67827">
        <ele>177</ele>
        <time>2017-10-11T10:59:31.000Z</time>
      </trkpt>
      <trkpt lat="43.69224" lon="1.67852">
        <ele>177</ele>
        <time>2017-10-11T10:59:49.000Z</time>
      </trkpt>
      <trkpt lat="43.6922" lon="1.67878">
        <ele>177</ele>
        <time>2017-10-11T11:00:9.000Z</time>
      </trkpt>
      <trkpt lat="43.69216" lon="1.67889">
        <ele>177</ele>
        <time>2017-10-11T11:00:17.000Z</time>
      </trkpt>
      <trkpt lat="43.692" lon="1.67884">
        <ele>177</ele>
        <time>2017-10-11T11:00:33.000Z</time>
      </trkpt>
      <trkpt lat="43.69178" lon="1.67879">
        <ele>178</ele>
        <time>2017-10-11T11:00:53.000Z</time>
      </trkpt>
      <trkpt lat="43.69158" lon="1.67873">
        <ele>179</ele>
        <time>2017-10-11T11:01:13.000Z</time>
      </trkpt>
      <trkpt lat="43.69141" lon="1.67871">
        <ele>180</ele>
        <time>2017-10-11T11:01:30.000Z</time>
      </trkpt>
      <trkpt lat="43.69122" lon="1.6787">
        <ele>181</ele>
        <time>2017-10-11T11:01:49.000Z</time>
      </trkpt>
      <trkpt lat="43.69106" lon="1.6787">
        <ele>182</ele>
        <time>2017-10-11T11:02:7.000Z</time>
      </trkpt>
      <trkpt lat="43.69088" lon="1.67867">
        <ele>183</ele>
        <time>2017-10-11T11:02:26.000Z</time>
      </trkpt>
      <trkpt lat="43.69085" lon="1.67867">
        <ele>183</ele>
        <time>2017-10-11T11:02:30.000Z</time>
      </trkpt>
      <trkpt lat="43.6907" lon="1.67866">
        <ele>184</ele>
        <time>2017-10-11T11:02:48.000Z</time>
      </trkpt>
      <trkpt lat="43.69052" lon="1.67866">
        <ele>185</ele>
        <time>2017-10-11T11:03:5.000Z</time>
      </trkpt>
      <trkpt lat="43.69042" lon="1.67873">
        <ele>186</ele>
        <time>2017-10-11T11:03:21.000Z</time>
      </trkpt>
      <trkpt lat="43.69035" lon="1.67885">
        <ele>187</ele>
        <time>2017-10-11T11:03:36.000Z</time>
      </trkpt>
      <trkpt lat="43.69034" lon="1.67888">
        <ele>187</ele>
        <time>2017-10-11T11:03:39.000Z</time>
      </trkpt>
      <trkpt lat="43.69033" lon="1.67906">
        <ele>189</ele>
        <time>2017-10-11T11:03:55.000Z</time>
      </trkpt>
      <trkpt lat="43.69024" lon="1.67921">
        <ele>190</ele>
        <time>2017-10-11T11:04:10.000Z</time>
      </trkpt>
      <trkpt lat="43.69013" lon="1.67926">
        <ele>191</ele>
        <time>2017-10-11T11:04:25.000Z</time>
      </trkpt>
      <trkpt lat="43.6901" lon="1.67925">
        <ele>191</ele>
        <time>2017-10-11T11:04:29.000Z</time>
      </trkpt>
      <trkpt lat="43.6899" lon="1.67926">
        <ele>192</ele>
        <time>2017-10-11T11:04:48.000Z</time>
      </trkpt>
      <trkpt lat="43.68973" lon="1.67927">
        <ele>193</ele>
        <time>2017-10-11T11:05:4.000Z</time>
      </trkpt>
      <trkpt lat="43.68951" lon="1.67932">
        <ele>195</ele>
        <time>2017-10-11T11:05:23.000Z</time>
      </trkpt>
      <trkpt lat="43.68954" lon="1.67953">
        <ele>197</ele>
        <time>2017-10-11T11:05:41.000Z</time>
      </trkpt>
      <trkpt lat="43.68958" lon="1.67963">
        <ele>197</ele>
        <time>2017-10-11T11:05:50.000Z</time>
      </trkpt>
      <trkpt lat="43.68973" lon="1.67989">
        <ele>197</ele>
        <time>2017-10-11T11:06:10.000Z</time>
      </trkpt>
      <trkpt lat="43.68977" lon="1.68004">
        <ele>197</ele>
        <time>2017-10-11T11:06:21.000Z</time>
      </trkpt>
      <trkpt lat="43.6899" lon="1.68027">
        <ele>196</ele>
        <time>2017-10-11T11:06:39.000Z</time>
      </trkpt>
      <trkpt lat="43.69003" lon="1.68048">
        <ele>194</ele>
        <time>2017-10-11T11:06:59.000Z</time>
      </trkpt>
      <trkpt lat="43.69005" lon="1.68077">
        <ele>194</ele>
        <time>2017-10-11T11:07:16.000Z</time>
      </trkpt>
      <trkpt lat="43.69" lon="1.6809">
        <ele>195</ele>
        <time>2017-10-11T11:07:27.000Z</time>
      </trkpt>
      <trkpt lat="43.68996" lon="1.68119">
        <ele>195</ele>
        <time>2017-10-11T11:07:46.000Z</time>
      </trkpt>
      <trkpt lat="43.6899" lon="1.68143">
        <ele>196</ele>
        <time>2017-10-11T11:08:4.000Z</time>
      </trkpt>
      <trkpt lat="43.6898" lon="1.68164">
        <ele>196</ele>
        <time>2017-10-11T11:08:24.000Z</time>
      </trkpt>
      <trkpt lat="43.68978" lon="1.68165">
        <ele>196</ele>
        <time>2017-10-11T11:08:26.000Z</time>
      </trkpt>
      <trkpt lat="43.68962" lon="1.68181">
        <ele>197</ele>
        <time>2017-10-11T11:08:44.000Z</time>
      </trkpt>
      <trkpt lat="43.68947" lon="1.682">
        <ele>198</ele>
        <time>2017-10-11T11:09:3.000Z</time>
      </trkpt>
      <trkpt lat="43.68931" lon="1.68215">
        <ele>199</ele>
        <time>2017-10-11T11:09:20.000Z</time>
      </trkpt>
      <trkpt lat="43.68917" lon="1.6823">
        <ele>200</ele>
        <time>2017-10-11T11:09:39.000Z</time>
      </trkpt>
      <trkpt lat="43.68902" lon="1.68247">
        <ele>202</ele>
        <time>2017-10-11T11:09:57.000Z</time>
      </trkpt>
      <trkpt lat="43.68896" lon="1.68258">
        <ele>202</ele>
        <time>2017-10-11T11:10:7.000Z</time>
      </trkpt>
      <trkpt lat="43.68894" lon="1.68266">
        <ele>202</ele>
        <time>2017-10-11T11:10:13.000Z</time>
      </trkpt>
      <trkpt lat="43.68899" lon="1.68292">
        <ele>203</ele>
        <time>2017-10-11T11:10:33.000Z</time>
      </trkpt>
      <trkpt lat="43.68901" lon="1.68311">
        <ele>203</ele>
        <time>2017-10-11T11:10:51.000Z</time>
      </trkpt>
      <trkpt lat="43.68893" lon="1.68312">
        <ele>203</ele>
        <time>2017-10-11T11:11:6.000Z</time>
      </trkpt>
      <trkpt lat="43.68891" lon="1.68312">
        <ele>203</ele>
        <time>2017-10-11T11:11:29.000Z</time>
      </trkpt>
      <trkpt lat="43.68891" lon="1.68311">
        <ele>203</ele>
        <time>2017-10-11T11:11:56.000Z</time>
      </trkpt>
      <trkpt lat="43.68888" lon="1.68314">
        <ele>204</ele>
        <time>2017-10-11T11:12:15.000Z</time>
      </trkpt>
      <trkpt lat="43.68881" lon="1.68318">
        <ele>204</ele>
        <time>2017-10-11T11:12:45.000Z</time>
      </trkpt>
      <trkpt lat="43.68868" lon="1.68323">
        <ele>205</ele>
        <time>2017-10-11T11:13:2.000Z</time>
      </trkpt>
      <trkpt lat="43.68851" lon="1.6833">
        <ele>206</ele>
        <time>2017-10-11T11:13:20.000Z</time>
      </trkpt>
      <trkpt lat="43.6883" lon="1.68332">
        <ele>207</ele>
        <time>2017-10-11T11:13:40.000Z</time>
      </trkpt>
      <trkpt lat="43.68817" lon="1.68339">
        <ele>208</ele>
        <time>2017-10-11T11:13:58.000Z</time>
      </trkpt>
      <trkpt lat="43.68806" lon="1.68351">
        <ele>209</ele>
        <time>2017-10-11T11:14:13.000Z</time>
      </trkpt>
      <trkpt lat="43.68801" lon="1.68359">
        <ele>209</ele>
        <time>2017-10-11T11:14:26.000Z</time>
      </trkpt>
      <trkpt lat="43.68797" lon="1.68363">
        <ele>209</ele>
        <time>2017-10-11T11:14:32.000Z</time>
      </trkpt>
      <trkpt lat="43.68781" lon="1.68377">
        <ele>211</ele>
        <time>2017-10-11T11:14:51.000Z</time>
      </trkpt>
      <trkpt lat="43.6877" lon="1.68384">
        <ele>212</ele>
        <time>2017-10-11T11:15:4.000Z</time>
      </trkpt>
      <trkpt lat="43.68752" lon="1.68395">
        <ele>213</ele>
        <time>2017-10-11T11:15:25.000Z</time>
      </trkpt>
      <trkpt lat="43.68735" lon="1.68411">
        <ele>214</ele>
        <time>2017-10-11T11:15:44.000Z</time>
      </trkpt>
      <trkpt lat="43.68714" lon="1.68425">
        <ele>215</ele>
        <time>2017-10-11T11:16:4.000Z</time>
      </trkpt>
      <trkpt lat="43.68702" lon="1.68437">
        <ele>216</ele>
        <time>2017-10-11T11:16:20.000Z</time>
      </trkpt>
      <trkpt lat="43.68682" lon="1.68451">
        <ele>217</ele>
        <time>2017-10-11T11:16:38.000Z</time>
      </trkpt>
      <trkpt lat="43.68673" lon="1.68458">
        <ele>218</ele>
        <time>2017-10-11T11:16:49.000Z</time>
      </trkpt>
      <trkpt lat="43.68656" lon="1.68469">
        <ele>219</ele>
        <time>2017-10-11T11:17:6.000Z</time>
      </trkpt>
      <trkpt lat="43.68641" lon="1.68482">
        <ele>220</ele>
        <time>2017-10-11T11:17:25.000Z</time>
      </trkpt>
      <trkpt lat="43.6864" lon="1.68482">
        <ele>220</ele>
        <time>2017-10-11T11:17:26.000Z</time>
      </trkpt>
      <trkpt lat="43.68632" lon="1.68487">
        <ele>221</ele>
        <time>2017-10-11T11:17:33.000Z</time>
      </trkpt>
      <trkpt lat="43.68618" lon="1.68501">
        <ele>221</ele>
        <time>2017-10-11T11:17:49.000Z</time>
      </trkpt>
      <trkpt lat="43.68604" lon="1.68516">
        <ele>222</ele>
        <time>2017-10-11T11:18:6.000Z</time>
      </trkpt>
      <trkpt lat="43.68594" lon="1.68528">
        <ele>222</ele>
        <time>2017-10-11T11:18:24.000Z</time>
      </trkpt>
      <trkpt lat="43.68588" lon="1.68534">
        <ele>222</ele>
        <time>2017-10-11T11:18:45.000Z</time>
      </trkpt>
      <trkpt lat="43.68587" lon="1.68534">
        <ele>222</ele>
        <time>2017-10-11T11:19:7.000Z</time>
      </trkpt>
      <trkpt lat="43.68586" lon="1.68535">
        <ele>222</ele>
        <time>2017-10-11T11:20:59.000Z</time>
      </trkpt>
      <trkpt lat="43.68578" lon="1.68547">
        <ele>223</ele>
        <time>2017-10-11T11:23:4.000Z</time>
      </trkpt>
      <trkpt lat="43.68566" lon="1.68557">
        <ele>224</ele>
        <time>2017-10-11T11:23:21.000Z</time>
      </trkpt>
      <trkpt lat="43.68557" lon="1.6857">
        <ele>224</ele>
        <time>2017-10-11T11:23:36.000Z</time>
      </trkpt>
      <trkpt lat="43.68546" lon="1.68583">
        <ele>225</ele>
        <time>2017-10-11T11:23:52.000Z</time>
      </trkpt>
      <trkpt lat="43.68536" lon="1.68599">
        <ele>226</ele>
        <time>2017-10-11T11:24:8.000Z</time>
      </trkpt>
      <trkpt lat="43.68525" lon="1.68619">
        <ele>226</ele>
        <time>2017-10-11T11:24:26.000Z</time>
      </trkpt>
      <trkpt lat="43.68522" lon="1.68626">
        <ele>227</ele>
        <time>2017-10-11T11:24:33.000Z</time>
      </trkpt>
      <trkpt lat="43.68512" lon="1.6865">
        <ele>227</ele>
        <time>2017-10-11T11:24:52.000Z</time>
      </trkpt>
      <trkpt lat="43.68502" lon="1.68672">
        <ele>228</ele>
        <time>2017-10-11T11:25:10.000Z</time>
      </trkpt>
      <trkpt lat="43.68497" lon="1.68682">
        <ele>229</ele>
        <time>2017-10-11T11:25:18.000Z</time>
      </trkpt>
      <trkpt lat="43.68486" lon="1.68706">
        <ele>229</ele>
        <time>2017-10-11T11:25:37.000Z</time>
      </trkpt>
      <trkpt lat="43.68477" lon="1.68727">
        <ele>230</ele>
        <time>2017-10-11T11:25:54.000Z</time>
      </trkpt>
      <trkpt lat="43.68467" lon="1.6875">
        <ele>230</ele>
        <time>2017-10-11T11:26:11.000Z</time>
      </trkpt>
      <trkpt lat="43.68457" lon="1.68772">
        <ele>230</ele>
        <time>2017-10-11T11:26:30.000Z</time>
      </trkpt>
      <trkpt lat="43.68442" lon="1.68791">
        <ele>231</ele>
        <time>2017-10-11T11:26:49.000Z</time>
      </trkpt>
      <trkpt lat="43.68421" lon="1.68792">
        <ele>232</ele>
        <time>2017-10-11T11:27:7.000Z</time>
      </trkpt>
      <trkpt lat="43.68403" lon="1.6879">
        <ele>233</ele>
        <time>2017-10-11T11:27:25.000Z</time>
      </trkpt>
      <trkpt lat="43.68398" lon="1.6879">
        <ele>233</ele>
        <time>2017-10-11T11:27:39.000Z</time>
      </trkpt>
      <trkpt lat="43.68393" lon="1.68791">
        <ele>233</ele>
        <time>2017-10-11T11:27:56.000Z</time>
      </trkpt>
      <trkpt lat="43.68394" lon="1.68791">
        <ele>233</ele>
        <time>2017-10-11T11:28:14.000Z</time>
      </trkpt>
      <trkpt lat="43.68392" lon="1.68793">
        <ele>233</ele>
        <time>2017-10-11T11:28:29.000Z</time>
      </trkpt>
      <trkpt lat="43.68388" lon="1.68825">
        <ele>233</ele>
        <time>2017-10-11T11:28:51.000Z</time>
      </trkpt>
      <trkpt lat="43.68386" lon="1.6884">
        <ele>233</ele>
        <time>2017-10-11T11:29:5.000Z</time>
      </trkpt>
      <trkpt lat="43.68384" lon="1.68854">
        <ele>232</ele>
        <time>2017-10-11T11:29:19.000Z</time>
      </trkpt>
      <trkpt lat="43.68383" lon="1.68865">
        <ele>232</ele>
        <time>2017-10-11T11:29:27.000Z</time>
      </trkpt>
      <trkpt lat="43.68377" lon="1.68902">
        <ele>232</ele>
        <time>2017-10-11T11:29:50.000Z</time>
      </trkpt>
      <trkpt lat="43.68379" lon="1.68916">
        <ele>232</ele>
        <time>2017-10-11T11:30:1.000Z</time>
      </trkpt>
      <trkpt lat="43.68379" lon="1.68947">
        <ele>232</ele>
        <time>2017-10-11T11:30:20.000Z</time>
      </trkpt>
      <trkpt lat="43.6838" lon="1.68979">
        <ele>232</ele>
        <time>2017-10-11T11:30:40.000Z</time>
      </trkpt>
      <trkpt lat="43.68386" lon="1.69017">
        <ele>232</ele>
        <time>2017-10-11T11:31:3.000Z</time>
      </trkpt>
      <trkpt lat="43.68387" lon="1.69057">
        <ele>231</ele>
        <time>2017-10-11T11:31:27.000Z</time>
      </trkpt>
      <trkpt lat="43.6838" lon="1.69095">
        <ele>231</ele>
        <time>2017-10-11T11:31:50.000Z</time>
      </trkpt>
      <trkpt lat="43.68369" lon="1.6913">
        <ele>232</ele>
        <time>2017-10-11T11:32:13.000Z</time>
      </trkpt>
      <trkpt lat="43.68359" lon="1.69158">
        <ele>232</ele>
        <time>2017-10-11T11:32:32.000Z</time>
      </trkpt>
      <trkpt lat="43.68348" lon="1.69184">
        <ele>232</ele>
        <time>2017-10-11T11:32:51.000Z</time>
      </trkpt>
      <trkpt lat="43.68335" lon="1.69215">
        <ele>231</ele>
        <time>2017-10-11T11:33:12.000Z</time>
      </trkpt>
      <trkpt lat="43.68323" lon="1.69242">
        <ele>232</ele>
        <time>2017-10-11T11:33:32.000Z</time>
      </trkpt>
      <trkpt lat="43.68313" lon="1.69269">
        <ele>232</ele>
        <time>2017-10-11T11:33:51.000Z</time>
      </trkpt>
      <trkpt lat="43.68311" lon="1.69272">
        <ele>232</ele>
        <time>2017-10-11T11:33:54.000Z</time>
      </trkpt>
      <trkpt lat="43.68307" lon="1.6928">
        <ele>232</ele>
        <time>2017-10-11T11:34:0.000Z</time>
      </trkpt>
      <trkpt lat="43.68298" lon="1.69303">
        <ele>232</ele>
        <time>2017-10-11T11:34:16.000Z</time>
      </trkpt>
      <trkpt lat="43.68288" lon="1.69328">
        <ele>232</ele>
        <time>2017-10-11T11:34:33.000Z</time>
      </trkpt>
      <trkpt lat="43.68278" lon="1.69361">
        <ele>232</ele>
        <time>2017-10-11T11:34:53.000Z</time>
      </trkpt>
      <trkpt lat="43.68267" lon="1.69392">
        <ele>232</ele>
        <time>2017-10-11T11:35:13.000Z</time>
      </trkpt>
      <trkpt lat="43.68258" lon="1.69425">
        <ele>232</ele>
        <time>2017-10-11T11:35:33.000Z</time>
      </trkpt>
      <trkpt lat="43.68246" lon="1.69453">
        <ele>232</ele>
        <time>2017-10-11T11:35:53.000Z</time>
      </trkpt>
      <trkpt lat="43.68244" lon="1.69458">
        <ele>232</ele>
        <time>2017-10-11T11:35:56.000Z</time>
      </trkpt>
      <trkpt lat="43.68242" lon="1.69465">
        <ele>232</ele>
        <time>2017-10-11T11:36:0.000Z</time>
      </trkpt>
      <trkpt lat="43.68237" lon="1.69477">
        <ele>232</ele>
        <time>2017-10-11T11:36:9.000Z</time>
      </trkpt>
      <trkpt lat="43.68226" lon="1.69507">
        <ele>232</ele>
        <time>2017-10-11T11:36:29.000Z</time>
      </trkpt>
      <trkpt lat="43.68211" lon="1.69522">
        <ele>232</ele>
        <time>2017-10-11T11:36:46.000Z</time>
      </trkpt>
      <trkpt lat="43.68194" lon="1.69506">
        <ele>231</ele>
        <time>2017-10-11T11:37:4.000Z</time>
      </trkpt>
      <trkpt lat="43.68177" lon="1.69494">
        <ele>231</ele>
        <time>2017-10-11T11:37:21.000Z</time>
      </trkpt>
      <trkpt lat="43.68155" lon="1.69477">
        <ele>231</ele>
        <time>2017-10-11T11:37:41.000Z</time>
      </trkpt>
      <trkpt lat="43.68133" lon="1.69458">
        <ele>232</ele>
        <time>2017-10-11T11:38:1.000Z</time>
      </trkpt>
      <trkpt lat="43.6811" lon="1.69439">
        <ele>232</ele>
        <time>2017-10-11T11:38:22.000Z</time>
      </trkpt>
      <trkpt lat="43.68088" lon="1.6942">
        <ele>232</ele>
        <time>2017-10-11T11:38:42.000Z</time>
      </trkpt>
      <trkpt lat="43.6808" lon="1.69411">
        <ele>232</ele>
        <time>2017-10-11T11:38:50.000Z</time>
      </trkpt>
      <trkpt lat="43.68057" lon="1.69393">
        <ele>232</ele>
        <time>2017-10-11T11:39:11.000Z</time>
      </trkpt>
      <trkpt lat="43.68048" lon="1.69386">
        <ele>232</ele>
        <time>2017-10-11T11:39:28.000Z</time>
      </trkpt>
      <trkpt lat="43.68042" lon="1.69382">
        <ele>232</ele>
        <time>2017-10-11T11:39:53.000Z</time>
      </trkpt>
      <trkpt lat="43.68028" lon="1.69373">
        <ele>231</ele>
        <time>2017-10-11T11:40:9.000Z</time>
      </trkpt>
      <trkpt lat="43.68022" lon="1.69364">
        <ele>231</ele>
        <time>2017-10-11T11:40:17.000Z</time>
      </trkpt>
      <trkpt lat="43.68016" lon="1.69358">
        <ele>231</ele>
        <time>2017-10-11T11:40:35.000Z</time>
      </trkpt>
      <trkpt lat="43.68015" lon="1.69355">
        <ele>231</ele>
        <time>2017-10-11T11:40:57.000Z</time>
      </trkpt>
      <trkpt lat="43.68013" lon="1.69354">
        <ele>231</ele>
        <time>2017-10-11T11:41:13.000Z</time>
      </trkpt>
      <trkpt lat="43.68012" lon="1.69352">
        <ele>231</ele>
        <time>2017-10-11T11:41:26.000Z</time>
      </trkpt>
      <trkpt lat="43.68009" lon="1.69346">
        <ele>231</ele>
        <time>2017-10-11T11:41:54.000Z</time>
      </trkpt>
      <trkpt lat="43.68009" lon="1.69346">
        <ele>231</ele>
        <time>2017-10-11T11:41:55.000Z</time>
      </trkpt>
      <trkpt lat="43.68011" lon="1.69338">
        <ele>231</ele>
        <time>2017-10-11T11:42:8.000Z</time>
      </trkpt>
      <trkpt lat="43.68011" lon="1.69337">
        <ele>231</ele>
        <time>2017-10-11T11:42:30.000Z</time>
      </trkpt>
      <trkpt lat="43.68008" lon="1.69347">
        <ele>231</ele>
        <time>2017-10-11T11:42:45.000Z</time>
      </trkpt>
      <trkpt lat="43.67999" lon="1.69349">
        <ele>231</ele>
        <time>2017-10-11T11:43:10.000Z</time>
      </trkpt>
      <trkpt lat="43.67994" lon="1.69351">
        <ele>230</ele>
        <time>2017-10-11T11:43:16.000Z</time>
      </trkpt>
      <trkpt lat="43.67978" lon="1.69356">
        <ele>229</ele>
        <time>2017-10-11T11:43:32.000Z</time>
      </trkpt>
      <trkpt lat="43.67977" lon="1.69356">
        <ele>229</ele>
        <time>2017-10-11T11:43:33.000Z</time>
      </trkpt>
      <trkpt lat="43.67962" lon="1.69368">
        <ele>229</ele>
        <time>2017-10-11T11:43:49.000Z</time>
      </trkpt>
      <trkpt lat="43.67943" lon="1.6938">
        <ele>227</ele>
        <time>2017-10-11T11:44:7.000Z</time>
      </trkpt>
      <trkpt lat="43.67925" lon="1.69397">
        <ele>225</ele>
        <time>2017-10-11T11:44:26.000Z</time>
      </trkpt>
      <trkpt lat="43.67909" lon="1.69414">
        <ele>222</ele>
        <time>2017-10-11T11:44:43.000Z</time>
      </trkpt>
      <trkpt lat="43.67907" lon="1.69415">
        <ele>222</ele>
        <time>2017-10-11T11:44:45.000Z</time>
      </trkpt>
      <trkpt lat="43.67898" lon="1.69422">
        <ele>221</ele>
        <time>2017-10-11T11:44:54.000Z</time>
      </trkpt>
      <trkpt lat="43.67882" lon="1.69436">
        <ele>219</ele>
        <time>2017-10-11T11:45:10.000Z</time>
      </trkpt>
      <trkpt lat="43.67867" lon="1.69449">
        <ele>216</ele>
        <time>2017-10-11T11:45:28.000Z</time>
      </trkpt>
      <trkpt lat="43.67854" lon="1.69459">
        <ele>215</ele>
        <time>2017-10-11T11:45:43.000Z</time>
      </trkpt>
      <trkpt lat="43.6784" lon="1.69471">
        <ele>213</ele>
        <time>2017-10-11T11:46:0.000Z</time>
      </trkpt>
      <trkpt lat="43.67824" lon="1.69485">
        <ele>210</ele>
        <time>2017-10-11T11:46:16.000Z</time>
      </trkpt>
      <trkpt lat="43.67817" lon="1.69491">
        <ele>209</ele>
        <time>2017-10-11T11:46:25.000Z</time>
      </trkpt>
      <trkpt lat="43.67802" lon="1.69502">
        <ele>207</ele>
        <time>2017-10-11T11:46:42.000Z</time>
      </trkpt>
      <trkpt lat="43.67799" lon="1.69503">
        <ele>206</ele>
        <time>2017-10-11T11:46:46.000Z</time>
      </trkpt>
      <trkpt lat="43.67784" lon="1.69513">
        <ele>204</ele>
        <time>2017-10-11T11:47:2.000Z</time>
      </trkpt>
      <trkpt lat="43.67771" lon="1.69516">
        <ele>201</ele>
        <time>2017-10-11T11:47:16.000Z</time>
      </trkpt>
      <trkpt lat="43.6776" lon="1.69517">
        <ele>199</ele>
        <time>2017-10-11T11:47:27.000Z</time>
      </trkpt>
      <trkpt lat="43.67754" lon="1.69518">
        <ele>198</ele>
        <time>2017-10-11T11:47:33.000Z</time>
      </trkpt>
      <trkpt lat="43.67733" lon="1.69514">
        <ele>195</ele>
        <time>2017-10-11T11:47:51.000Z</time>
      </trkpt>
      <trkpt lat="43.67714" lon="1.69508">
        <ele>193</ele>
        <time>2017-10-11T11:48:8.000Z</time>
      </trkpt>
      <trkpt lat="43.67709" lon="1.69505">
        <ele>192</ele>
        <time>2017-10-11T11:48:13.000Z</time>
      </trkpt>
      <trkpt lat="43.67692" lon="1.69489">
        <ele>190</ele>
        <time>2017-10-11T11:48:31.000Z</time>
      </trkpt>
      <trkpt lat="43.67678" lon="1.69469">
        <ele>190</ele>
        <time>2017-10-11T11:48:47.000Z</time>
      </trkpt>
      <trkpt lat="43.67666" lon="1.69449">
        <ele>190</ele>
        <time>2017-10-11T11:49:4.000Z</time>
      </trkpt>
      <trkpt lat="43.67654" lon="1.69431">
        <ele>191</ele>
        <time>2017-10-11T11:49:20.000Z</time>
      </trkpt>
      <trkpt lat="43.67642" lon="1.69412">
        <ele>192</ele>
        <time>2017-10-11T11:49:36.000Z</time>
      </trkpt>
      <trkpt lat="43.67633" lon="1.69399">
        <ele>194</ele>
        <time>2017-10-11T11:49:48.000Z</time>
      </trkpt>
      <trkpt lat="43.6763" lon="1.69393">
        <ele>194</ele>
        <time>2017-10-11T11:49:53.000Z</time>
      </trkpt>
      <trkpt lat="43.6762" lon="1.6938">
        <ele>195</ele>
        <time>2017-10-11T11:50:7.000Z</time>
      </trkpt>
      <trkpt lat="43.67609" lon="1.69369">
        <ele>197</ele>
        <time>2017-10-11T11:50:20.000Z</time>
      </trkpt>
      <trkpt lat="43.67596" lon="1.69361">
        <ele>198</ele>
        <time>2017-10-11T11:50:33.000Z</time>
      </trkpt>
      <trkpt lat="43.67586" lon="1.6935">
        <ele>199</ele>
        <time>2017-10-11T11:50:46.000Z</time>
      </trkpt>
      <trkpt lat="43.6757" lon="1.69341">
        <ele>200</ele>
        <time>2017-10-11T11:51:2.000Z</time>
      </trkpt>
      <trkpt lat="43.67569" lon="1.69339">
        <ele>201</ele>
        <time>2017-10-11T11:51:4.000Z</time>
      </trkpt>
      <trkpt lat="43.67564" lon="1.69334">
        <ele>201</ele>
        <time>2017-10-11T11:51:13.000Z</time>
      </trkpt>
      <trkpt lat="43.67559" lon="1.69329">
        <ele>202</ele>
        <time>2017-10-11T11:51:19.000Z</time>
      </trkpt>
      <trkpt lat="43.67547" lon="1.69321">
        <ele>203</ele>
        <time>2017-10-11T11:51:35.000Z</time>
      </trkpt>
      <trkpt lat="43.67543" lon="1.69319">
        <ele>204</ele>
        <time>2017-10-11T11:51:39.000Z</time>
      </trkpt>
      <trkpt lat="43.67531" lon="1.69308">
        <ele>205</ele>
        <time>2017-10-11T11:51:53.000Z</time>
      </trkpt>
      <trkpt lat="43.67516" lon="1.69297">
        <ele>206</ele>
        <time>2017-10-11T11:52:9.000Z</time>
      </trkpt>
      <trkpt lat="43.67509" lon="1.69291">
        <ele>207</ele>
        <time>2017-10-11T11:52:18.000Z</time>
      </trkpt>
      <trkpt lat="43.67507" lon="1.69289">
        <ele>207</ele>
        <time>2017-10-11T11:52:20.000Z</time>
      </trkpt>
      <trkpt lat="43.67492" lon="1.69276">
        <ele>209</ele>
        <time>2017-10-11T11:52:38.000Z</time>
      </trkpt>
      <trkpt lat="43.67487" lon="1.69273">
        <ele>209</ele>
        <time>2017-10-11T11:52:44.000Z</time>
      </trkpt>
      <trkpt lat="43.6748" lon="1.69268">
        <ele>210</ele>
        <time>2017-10-11T11:52:52.000Z</time>
      </trkpt>
      <trkpt lat="43.67467" lon="1.69256">
        <ele>211</ele>
        <time>2017-10-11T11:53:8.000Z</time>
      </trkpt>
      <trkpt lat="43.67451" lon="1.69244">
        <ele>213</ele>
        <time>2017-10-11T11:53:26.000Z</time>
      </trkpt>
      <trkpt lat="43.67447" lon="1.69239">
        <ele>213</ele>
        <time>2017-10-11T11:53:31.000Z</time>
      </trkpt>
      <trkpt lat="43.67429" lon="1.69225">
        <ele>215</ele>
        <time>2017-10-11T11:53:50.000Z</time>
      </trkpt>
      <trkpt lat="43.67416" lon="1.69211">
        <ele>217</ele>
        <time>2017-10-11T11:54:6.000Z</time>
      </trkpt>
      <trkpt lat="43.67401" lon="1.69195">
        <ele>218</ele>
        <time>2017-10-11T11:54:22.000Z</time>
      </trkpt>
      <trkpt lat="43.6739" lon="1.69185">
        <ele>218</ele>
        <time>2017-10-11T11:54:36.000Z</time>
      </trkpt>
      <trkpt lat="43.67381" lon="1.69175">
        <ele>219</ele>
        <time>2017-10-11T11:54:49.000Z</time>
      </trkpt>
      <trkpt lat="43.67366" lon="1.69161">
        <ele>220</ele>
        <time>2017-10-11T11:55:7.000Z</time>
      </trkpt>
      <trkpt lat="43.67366" lon="1.69161">
        <ele>220</ele>
        <time>2017-10-11T11:55:8.000Z</time>
      </trkpt>
      <trkpt lat="43.67362" lon="1.69157">
        <ele>220</ele>
        <time>2017-10-11T11:55:13.000Z</time>
      </trkpt>
      <trkpt lat="43.67353" lon="1.6915">
        <ele>221</ele>
        <time>2017-10-11T11:55:24.000Z</time>
      </trkpt>
      <trkpt lat="43.67351" lon="1.69149">
        <ele>221</ele>
        <time>2017-10-11T11:55:26.000Z</time>
      </trkpt>
      <trkpt lat="43.67338" lon="1.6914">
        <ele>222</ele>
        <time>2017-10-11T11:55:42.000Z</time>
      </trkpt>
      <trkpt lat="43.67325" lon="1.69129">
        <ele>223</ele>
        <time>2017-10-11T11:55:58.000Z</time>
      </trkpt>
      <trkpt lat="43.67321" lon="1.69126">
        <ele>223</ele>
        <time>2017-10-11T11:56:3.000Z</time>
      </trkpt>
      <trkpt lat="43.6731" lon="1.69118">
        <ele>223</ele>
        <time>2017-10-11T11:56:16.000Z</time>
      </trkpt>
      <trkpt lat="43.67309" lon="1.69116">
        <ele>223</ele>
        <time>2017-10-11T11:56:18.000Z</time>
      </trkpt>
      <trkpt lat="43.67305" lon="1.69114">
        <ele>224</ele>
        <time>2017-10-11T11:56:22.000Z</time>
      </trkpt>
      <trkpt lat="43.67294" lon="1.69106">
        <ele>224</ele>
        <time>2017-10-11T11:56:37.000Z</time>
      </trkpt>
      <trkpt lat="43.67281" lon="1.69098">
        <ele>224</ele>
        <time>2017-10-11T11:56:52.000Z</time>
      </trkpt>
      <trkpt lat="43.67269" lon="1.69086">
        <ele>225</ele>
        <time>2017-10-11T11:57:9.000Z</time>
      </trkpt>
      <trkpt lat="43.67266" lon="1.69085">
        <ele>225</ele>
        <time>2017-10-11T11:57:24.000Z</time>
      </trkpt>
      <trkpt lat="43.67266" lon="1.69085">
        <ele>225</ele>
        <time>2017-10-11T11:58:8.000Z</time>
      </trkpt>
      <trkpt lat="43.67266" lon="1.69086">
        <ele>225</ele>
        <time>2017-10-11T11:59:44.000Z</time>
      </trkpt>
      <trkpt lat="43.67255" lon="1.69086">
        <ele>225</ele>
        <time>2017-10-11T12:00:26.000Z</time>
      </trkpt>
      <trkpt lat="43.67234" lon="1.69084">
        <ele>225</ele>
        <time>2017-10-11T12:00:43.000Z</time>
      </trkpt>
      <trkpt lat="43.67213" lon="1.6908">
        <ele>225</ele>
        <time>2017-10-11T12:01:3.000Z</time>
      </trkpt>
      <trkpt lat="43.67195" lon="1.69078">
        <ele>226</ele>
        <time>2017-10-11T12:01:20.000Z</time>
      </trkpt>
      <trkpt lat="43.67174" lon="1.69071">
        <ele>228</ele>
        <time>2017-10-11T12:01:40.000Z</time>
      </trkpt>
      <trkpt lat="43.67155" lon="1.6906">
        <ele>229</ele>
        <time>2017-10-11T12:01:59.000Z</time>
      </trkpt>
      <trkpt lat="43.67137" lon="1.69042">
        <ele>230</ele>
        <time>2017-10-11T12:02:17.000Z</time>
      </trkpt>
      <trkpt lat="43.67121" lon="1.69029">
        <ele>231</ele>
        <time>2017-10-11T12:02:34.000Z</time>
      </trkpt>
      <trkpt lat="43.67103" lon="1.69017">
        <ele>232</ele>
        <time>2017-10-11T12:02:52.000Z</time>
      </trkpt>
      <trkpt lat="43.67079" lon="1.69007">
        <ele>232</ele>
        <time>2017-10-11T12:03:12.000Z</time>
      </trkpt>
      <trkpt lat="43.67059" lon="1.68997">
        <ele>232</ele>
        <time>2017-10-11T12:03:31.000Z</time>
      </trkpt>
      <trkpt lat="43.67036" lon="1.68989">
        <ele>231</ele>
        <time>2017-10-11T12:03:50.000Z</time>
      </trkpt>
      <trkpt lat="43.67008" lon="1.68983">
        <ele>230</ele>
        <time>2017-10-11T12:04:13.000Z</time>
      </trkpt>
      <trkpt lat="43.66986" lon="1.68973">
        <ele>228</ele>
        <time>2017-10-11T12:04:33.000Z</time>
      </trkpt>
      <trkpt lat="43.66966" lon="1.68964">
        <ele>226</ele>
        <time>2017-10-11T12:04:51.000Z</time>
      </trkpt>
      <trkpt lat="43.6694" lon="1.68953">
        <ele>225</ele>
        <time>2017-10-11T12:05:14.000Z</time>
      </trkpt>
      <trkpt lat="43.66927" lon="1.68943">
        <ele>224</ele>
        <time>2017-10-11T12:05:26.000Z</time>
      </trkpt>
      <trkpt lat="43.66913" lon="1.68929">
        <ele>224</ele>
        <time>2017-10-11T12:05:40.000Z</time>
      </trkpt>
      <trkpt lat="43.66909" lon="1.68925">
        <ele>224</ele>
        <time>2017-10-11T12:05:44.000Z</time>
      </trkpt>
      <trkpt lat="43.66891" lon="1.68903">
        <ele>225</ele>
        <time>2017-10-11T12:06:3.000Z</time>
      </trkpt>
      <trkpt lat="43.66873" lon="1.68888">
        <ele>227</ele>
        <time>2017-10-11T12:06:20.000Z</time>
      </trkpt>
      <trkpt lat="43.66864" lon="1.6888">
        <ele>229</ele>
        <time>2017-10-11T12:06:30.000Z</time>
      </trkpt>
      <trkpt lat="43.66856" lon="1.68871">
        <ele>230</ele>
        <time>2017-10-11T12:06:39.000Z</time>
      </trkpt>
      <trkpt lat="43.66844" lon="1.6886">
        <ele>232</ele>
        <time>2017-10-11T12:06:53.000Z</time>
      </trkpt>
      <trkpt lat="43.66834" lon="1.6885">
        <ele>234</ele>
        <time>2017-10-11T12:07:8.000Z</time>
      </trkpt>
      <trkpt lat="43.66825" lon="1.68838">
        <ele>236</ele>
        <time>2017-10-11T12:07:22.000Z</time>
      </trkpt>
      <trkpt lat="43.66817" lon="1.6883">
        <ele>238</ele>
        <time>2017-10-11T12:07:36.000Z</time>
      </trkpt>
      <trkpt lat="43.66809" lon="1.68818">
        <ele>240</ele>
        <time>2017-10-11T12:07:51.000Z</time>
      </trkpt>
      <trkpt lat="43.66799" lon="1.68808">
        <ele>242</ele>
        <time>2017-10-11T12:08:5.000Z</time>
      </trkpt>
      <trkpt lat="43.6679" lon="1.68796">
        <ele>245</ele>
        <time>2017-10-11T12:08:24.000Z</time>
      </trkpt>
      <trkpt lat="43.66779" lon="1.68783">
        <ele>247</ele>
        <time>2017-10-11T12:08:40.000Z</time>
      </trkpt>
      <trkpt lat="43.66772" lon="1.68775">
        <ele>248</ele>
        <time>2017-10-11T12:08:54.000Z</time>
      </trkpt>
      <trkpt lat="43.66762" lon="1.68766">
        <ele>249</ele>
        <time>2017-10-11T12:09:11.000Z</time>
      </trkpt>
      <trkpt lat="43.66751" lon="1.6876">
        <ele>250</ele>
        <time>2017-10-11T12:09:26.000Z</time>
      </trkpt>
      <trkpt lat="43.66742" lon="1.68753">
        <ele>251</ele>
        <time>2017-10-11T12:09:40.000Z</time>
      </trkpt>
      <trkpt lat="43.66741" lon="1.68752">
        <ele>251</ele>
        <time>2017-10-11T12:10:1.000Z</time>
      </trkpt>
      <trkpt lat="43.66741" lon="1.68752">
        <ele>251</ele>
        <time>2017-10-11T12:11:0.000Z</time>
      </trkpt>
      <trkpt lat="43.6674" lon="1.68751">
        <ele>251</ele>
        <time>2017-10-11T12:11:29.000Z</time>
      </trkpt>
      <trkpt lat="43.66739" lon="1.68745">
        <ele>250</ele>
        <time>2017-10-11T12:11:47.000Z</time>
      </trkpt>
      <trkpt lat="43.66734" lon="1.68722">
        <ele>250</ele>
        <time>2017-10-11T12:12:3.000Z</time>
      </trkpt>
      <trkpt lat="43.66716" lon="1.68708">
        <ele>247</ele>
        <time>2017-10-11T12:12:21.000Z</time>
      </trkpt>
      <trkpt lat="43.66701" lon="1.68693">
        <ele>245</ele>
        <time>2017-10-11T12:12:39.000Z</time>
      </trkpt>
      <trkpt lat="43.66692" lon="1.68683">
        <ele>244</ele>
        <time>2017-10-11T12:12:51.000Z</time>
      </trkpt>
      <trkpt lat="43.66683" lon="1.68674">
        <ele>242</ele>
        <time>2017-10-11T12:13:6.000Z</time>
      </trkpt>
      <trkpt lat="43.66678" lon="1.68671">
        <ele>241</ele>
        <time>2017-10-11T12:13:12.000Z</time>
      </trkpt>
      <trkpt lat="43.66669" lon="1.68663">
        <ele>239</ele>
        <time>2017-10-11T12:13:25.000Z</time>
      </trkpt>
      <trkpt lat="43.66655" lon="1.68649">
        <ele>236</ele>
        <time>2017-10-11T12:13:43.000Z</time>
      </trkpt>
      <trkpt lat="43.66643" lon="1.68635">
        <ele>234</ele>
        <time>2017-10-11T12:14:0.000Z</time>
      </trkpt>
      <trkpt lat="43.66626" lon="1.68618">
        <ele>232</ele>
        <time>2017-10-11T12:14:19.000Z</time>
      </trkpt>
      <trkpt lat="43.66611" lon="1.68602">
        <ele>230</ele>
        <time>2017-10-11T12:14:36.000Z</time>
      </trkpt>
      <trkpt lat="43.66596" lon="1.68584">
        <ele>229</ele>
        <time>2017-10-11T12:14:55.000Z</time>
      </trkpt>
      <trkpt lat="43.6658" lon="1.68568">
        <ele>228</ele>
        <time>2017-10-11T12:15:12.000Z</time>
      </trkpt>
      <trkpt lat="43.66563" lon="1.68554">
        <ele>228</ele>
        <time>2017-10-11T12:15:28.000Z</time>
      </trkpt>
      <trkpt lat="43.66549" lon="1.68537">
        <ele>229</ele>
        <time>2017-10-11T12:15:46.000Z</time>
      </trkpt>
      <trkpt lat="43.66547" lon="1.68535">
        <ele>229</ele>
        <time>2017-10-11T12:15:49.000Z</time>
      </trkpt>
      <trkpt lat="43.66541" lon="1.6853">
        <ele>229</ele>
        <time>2017-10-11T12:15:55.000Z</time>
      </trkpt>
      <trkpt lat="43.66537" lon="1.68527">
        <ele>229</ele>
        <time>2017-10-11T12:15:59.000Z</time>
      </trkpt>
      <trkpt lat="43.66531" lon="1.68522">
        <ele>229</ele>
        <time>2017-10-11T12:16:6.000Z</time>
      </trkpt>
      <trkpt lat="43.66524" lon="1.68514">
        <ele>229</ele>
        <time>2017-10-11T12:16:14.000Z</time>
      </trkpt>
      <trkpt lat="43.66508" lon="1.685">
        <ele>228</ele>
        <time>2017-10-11T12:16:32.000Z</time>
      </trkpt>
      <trkpt lat="43.66499" lon="1.68497">
        <ele>227</ele>
        <time>2017-10-11T12:16:40.000Z</time>
      </trkpt>
      <trkpt lat="43.66482" lon="1.68483">
        <ele>227</ele>
        <time>2017-10-11T12:16:58.000Z</time>
      </trkpt>
      <trkpt lat="43.66478" lon="1.68481">
        <ele>226</ele>
        <time>2017-10-11T12:17:2.000Z</time>
      </trkpt>
      <trkpt lat="43.66465" lon="1.68472">
        <ele>225</ele>
        <time>2017-10-11T12:17:14.000Z</time>
      </trkpt>
      <trkpt lat="43.66449" lon="1.6846">
        <ele>221</ele>
        <time>2017-10-11T12:17:30.000Z</time>
      </trkpt>
      <trkpt lat="43.66439" lon="1.68445">
        <ele>218</ele>
        <time>2017-10-11T12:17:44.000Z</time>
      </trkpt>
      <trkpt lat="43.66436" lon="1.68439">
        <ele>217</ele>
        <time>2017-10-11T12:17:49.000Z</time>
      </trkpt>
      <trkpt lat="43.66428" lon="1.68426">
        <ele>214</ele>
        <time>2017-10-11T12:18:5.000Z</time>
      </trkpt>
      <trkpt lat="43.6642" lon="1.68413">
        <ele>211</ele>
        <time>2017-10-11T12:18:19.000Z</time>
      </trkpt>
      <trkpt lat="43.66417" lon="1.68408">
        <ele>210</ele>
        <time>2017-10-11T12:18:23.000Z</time>
      </trkpt>
      <trkpt lat="43.6641" lon="1.68386">
        <ele>207</ele>
        <time>2017-10-11T12:18:39.000Z</time>
      </trkpt>
      <trkpt lat="43.66406" lon="1.68366">
        <ele>205</ele>
        <time>2017-10-11T12:18:54.000Z</time>
      </trkpt>
      <trkpt lat="43.66407" lon="1.68347">
        <ele>204</ele>
        <time>2017-10-11T12:19:8.000Z</time>
      </trkpt>
      <trkpt lat="43.66406" lon="1.68321">
        <ele>201</ele>
        <time>2017-10-11T12:19:25.000Z</time>
      </trkpt>
      <trkpt lat="43.66407" lon="1.68295">
        <ele>199</ele>
        <time>2017-10-11T12:19:44.000Z</time>
      </trkpt>
      <trkpt lat="43.66403" lon="1.68268">
        <ele>196</ele>
        <time>2017-10-11T12:20:1.000Z</time>
      </trkpt>
      <trkpt lat="43.66396" lon="1.68246">
        <ele>193</ele>
        <time>2017-10-11T12:20:17.000Z</time>
      </trkpt>
      <trkpt lat="43.66385" lon="1.68221">
        <ele>190</ele>
        <time>2017-10-11T12:20:36.000Z</time>
      </trkpt>
      <trkpt lat="43.66374" lon="1.68204">
        <ele>190</ele>
        <time>2017-10-11T12:20:52.000Z</time>
      </trkpt>
      <trkpt lat="43.66362" lon="1.68189">
        <ele>191</ele>
        <time>2017-10-11T12:21:8.000Z</time>
      </trkpt>
      <trkpt lat="43.66351" lon="1.68176">
        <ele>192</ele>
        <time>2017-10-11T12:21:24.000Z</time>
      </trkpt>
      <trkpt lat="43.6634" lon="1.68164">
        <ele>193</ele>
        <time>2017-10-11T12:21:39.000Z</time>
      </trkpt>
      <trkpt lat="43.66328" lon="1.68153">
        <ele>194</ele>
        <time>2017-10-11T12:21:54.000Z</time>
      </trkpt>
      <trkpt lat="43.66316" lon="1.6814">
        <ele>195</ele>
        <time>2017-10-11T12:22:11.000Z</time>
      </trkpt>
      <trkpt lat="43.66306" lon="1.6813">
        <ele>197</ele>
        <time>2017-10-11T12:22:24.000Z</time>
      </trkpt>
      <trkpt lat="43.66297" lon="1.68121">
        <ele>198</ele>
        <time>2017-10-11T12:22:38.000Z</time>
      </trkpt>
      <trkpt lat="43.66297" lon="1.6812">
        <ele>198</ele>
        <time>2017-10-11T12:22:39.000Z</time>
      </trkpt>
      <trkpt lat="43.66286" lon="1.68113">
        <ele>200</ele>
        <time>2017-10-11T12:22:53.000Z</time>
      </trkpt>
      <trkpt lat="43.6628" lon="1.68107">
        <ele>201</ele>
        <time>2017-10-11T12:23:1.000Z</time>
      </trkpt>
      <trkpt lat="43.66269" lon="1.68097">
        <ele>202</ele>
        <time>2017-10-11T12:23:15.000Z</time>
      </trkpt>
      <trkpt lat="43.66259" lon="1.68085">
        <ele>203</ele>
        <time>2017-10-11T12:23:30.000Z</time>
      </trkpt>
      <trkpt lat="43.66256" lon="1.68082">
        <ele>204</ele>
        <time>2017-10-11T12:23:34.000Z</time>
      </trkpt>
      <trkpt lat="43.66255" lon="1.68082">
        <ele>204</ele>
        <time>2017-10-11T12:23:35.000Z</time>
      </trkpt>
      <trkpt lat="43.66241" lon="1.68068">
        <ele>206</ele>
        <time>2017-10-11T12:23:56.000Z</time>
      </trkpt>
      <trkpt lat="43.66227" lon="1.68056">
        <ele>208</ele>
        <time>2017-10-11T12:24:13.000Z</time>
      </trkpt>
      <trkpt lat="43.66216" lon="1.68047">
        <ele>210</ele>
        <time>2017-10-11T12:24:29.000Z</time>
      </trkpt>
      <trkpt lat="43.66205" lon="1.68035">
        <ele>212</ele>
        <time>2017-10-11T12:24:46.000Z</time>
      </trkpt>
      <trkpt lat="43.66195" lon="1.68027">
        <ele>213</ele>
        <time>2017-10-11T12:25:1.000Z</time>
      </trkpt>
      <trkpt lat="43.66183" lon="1.68015">
        <ele>215</ele>
        <time>2017-10-11T12:25:19.000Z</time>
      </trkpt>
      <trkpt lat="43.66172" lon="1.68004">
        <ele>216</ele>
        <time>2017-10-11T12:25:36.000Z</time>
      </trkpt>
      <trkpt lat="43.66161" lon="1.67994">
        <ele>218</ele>
        <time>2017-10-11T12:25:52.000Z</time>
      </trkpt>
      <trkpt lat="43.6615" lon="1.67986">
        <ele>219</ele>
        <time>2017-10-11T12:26:7.000Z</time>
      </trkpt>
      <trkpt lat="43.66138" lon="1.67977">
        <ele>221</ele>
        <time>2017-10-11T12:26:22.000Z</time>
      </trkpt>
      <trkpt lat="43.66127" lon="1.67966">
        <ele>223</ele>
        <time>2017-10-11T12:26:39.000Z</time>
      </trkpt>
      <trkpt lat="43.66116" lon="1.67957">
        <ele>224</ele>
        <time>2017-10-11T12:26:54.000Z</time>
      </trkpt>
      <trkpt lat="43.66106" lon="1.67945">
        <ele>226</ele>
        <time>2017-10-11T12:27:11.000Z</time>
      </trkpt>
      <trkpt lat="43.66102" lon="1.67939">
        <ele>226</ele>
        <time>2017-10-11T12:27:23.000Z</time>
      </trkpt>
      <trkpt lat="43.66092" lon="1.67927">
        <ele>228</ele>
        <time>2017-10-11T12:27:38.000Z</time>
      </trkpt>
      <trkpt lat="43.66084" lon="1.67916">
        <ele>229</ele>
        <time>2017-10-11T12:27:52.000Z</time>
      </trkpt>
      <trkpt lat="43.66073" lon="1.67902">
        <ele>230</ele>
        <time>2017-10-11T12:28:7.000Z</time>
      </trkpt>
      <trkpt lat="43.66066" lon="1.67894">
        <ele>231</ele>
        <time>2017-10-11T12:28:25.000Z</time>
      </trkpt>
      <trkpt lat="43.66059" lon="1.67885">
        <ele>231</ele>
        <time>2017-10-11T12:28:41.000Z</time>
      </trkpt>
      <trkpt lat="43.66044" lon="1.67867">
        <ele>231</ele>
        <time>2017-10-11T12:28:56.000Z</time>
      </trkpt>
      <trkpt lat="43.66034" lon="1.67859">
        <ele>231</ele>
        <time>2017-10-11T12:29:11.000Z</time>
      </trkpt>
      <trkpt lat="43.66021" lon="1.67851">
        <ele>232</ele>
        <time>2017-10-11T12:29:26.000Z</time>
      </trkpt>
      <trkpt lat="43.6601" lon="1.67846">
        <ele>232</ele>
        <time>2017-10-11T12:29:40.000Z</time>
      </trkpt>
      <trkpt lat="43.65997" lon="1.6784">
        <ele>232</ele>
        <time>2017-10-11T12:29:55.000Z</time>
      </trkpt>
      <trkpt lat="43.65975" lon="1.67837">
        <ele>232</ele>
        <time>2017-10-11T12:30:12.000Z</time>
      </trkpt>
      <trkpt lat="43.65961" lon="1.67832">
        <ele>234</ele>
        <time>2017-10-11T12:30:28.000Z</time>
      </trkpt>
      <trkpt lat="43.6595" lon="1.67823">
        <ele>235</ele>
        <time>2017-10-11T12:30:43.000Z</time>
      </trkpt>
      <trkpt lat="43.65942" lon="1.67808">
        <ele>237</ele>
        <time>2017-10-11T12:30:59.000Z</time>
      </trkpt>
      <trkpt lat="43.65937" lon="1.67798">
        <ele>237</ele>
        <time>2017-10-11T12:31:12.000Z</time>
      </trkpt>
      <trkpt lat="43.65932" lon="1.67785">
        <ele>239</ele>
        <time>2017-10-11T12:31:29.000Z</time>
      </trkpt>
      <trkpt lat="43.65928" lon="1.6777">
        <ele>240</ele>
        <time>2017-10-11T12:31:46.000Z</time>
      </trkpt>
      <trkpt lat="43.65925" lon="1.67755">
        <ele>241</ele>
        <time>2017-10-11T12:32:2.000Z</time>
      </trkpt>
      <trkpt lat="43.65921" lon="1.67739">
        <ele>243</ele>
        <time>2017-10-11T12:32:19.000Z</time>
      </trkpt>
      <trkpt lat="43.65917" lon="1.67723">
        <ele>245</ele>
        <time>2017-10-11T12:32:35.000Z</time>
      </trkpt>
      <trkpt lat="43.65912" lon="1.67709">
        <ele>246</ele>
        <time>2017-10-11T12:32:49.000Z</time>
      </trkpt>
      <trkpt lat="43.65907" lon="1.67698">
        <ele>248</ele>
        <time>2017-10-11T12:33:4.000Z</time>
      </trkpt>
      <trkpt lat="43.65904" lon="1.67689">
        <ele>248</ele>
        <time>2017-10-11T12:33:18.000Z</time>
      </trkpt>
      <trkpt lat="43.65898" lon="1.67675">
        <ele>250</ele>
        <time>2017-10-11T12:33:34.000Z</time>
      </trkpt>
      <trkpt lat="43.65891" lon="1.6766">
        <ele>251</ele>
        <time>2017-10-11T12:33:53.000Z</time>
      </trkpt>
      <trkpt lat="43.65887" lon="1.67654">
        <ele>252</ele>
        <time>2017-10-11T12:34:8.000Z</time>
      </trkpt>
      <trkpt lat="43.65878" lon="1.67635">
        <ele>252</ele>
        <time>2017-10-11T12:34:23.000Z</time>
      </trkpt>
      <trkpt lat="43.65874" lon="1.67628">
        <ele>252</ele>
        <time>2017-10-11T12:34:40.000Z</time>
      </trkpt>
      <trkpt lat="43.65872" lon="1.67626">
        <ele>252</ele>
        <time>2017-10-11T12:35:47.000Z</time>
      </trkpt>
      <trkpt lat="43.65872" lon="1.67624">
        <ele>252</ele>
        <time>2017-10-11T12:36:58.000Z</time>
      </trkpt>
      <trkpt lat="43.65871" lon="1.6762">
        <ele>252</ele>
        <time>2017-10-11T12:38:13.000Z</time>
      </trkpt>
      <trkpt lat="43.65867" lon="1.67603">
        <ele>252</ele>
        <time>2017-10-11T12:38:29.000Z</time>
      </trkpt>
      <trkpt lat="43.65871" lon="1.67586">
        <ele>252</ele>
        <time>2017-10-11T12:38:44.000Z</time>
      </trkpt>
      <trkpt lat="43.65872" lon="1.67582">
        <ele>253</ele>
        <time>2017-10-11T12:38:48.000Z</time>
      </trkpt>
      <trkpt lat="43.65881" lon="1.67563">
        <ele>253</ele>
        <time>2017-10-11T12:39:2.000Z</time>
      </trkpt>
      <trkpt lat="43.65891" lon="1.67542">
        <ele>252</ele>
        <time>2017-10-11T12:39:18.000Z</time>
      </trkpt>
      <trkpt lat="43.65907" lon="1.6752">
        <ele>251</ele>
        <time>2017-10-11T12:39:39.000Z</time>
      </trkpt>
      <trkpt lat="43.65919" lon="1.67495">
        <ele>251</ele>
        <time>2017-10-11T12:39:58.000Z</time>
      </trkpt>
      <trkpt lat="43.65935" lon="1.67476">
        <ele>250</ele>
        <time>2017-10-11T12:40:18.000Z</time>
      </trkpt>
      <trkpt lat="43.65954" lon="1.67461">
        <ele>248</ele>
        <time>2017-10-11T12:40:38.000Z</time>
      </trkpt>
      <trkpt lat="43.65974" lon="1.67437">
        <ele>246</ele>
        <time>2017-10-11T12:41:0.000Z</time>
      </trkpt>
      <trkpt lat="43.65991" lon="1.67414">
        <ele>244</ele>
        <time>2017-10-11T12:41:21.000Z</time>
      </trkpt>
      <trkpt lat="43.66012" lon="1.67391">
        <ele>243</ele>
        <time>2017-10-11T12:41:45.000Z</time>
      </trkpt>
      <trkpt lat="43.66016" lon="1.67389">
        <ele>243</ele>
        <time>2017-10-11T12:41:49.000Z</time>
      </trkpt>
      <trkpt lat="43.66038" lon="1.67385">
        <ele>242</ele>
        <time>2017-10-11T12:42:8.000Z</time>
      </trkpt>
      <trkpt lat="43.66055" lon="1.67385">
        <ele>241</ele>
        <time>2017-10-11T12:42:23.000Z</time>
      </trkpt>
      <trkpt lat="43.66063" lon="1.67374">
        <ele>240</ele>
        <time>2017-10-11T12:42:32.000Z</time>
      </trkpt>
      <trkpt lat="43.66075" lon="1.67337">
        <ele>237</ele>
        <time>2017-10-11T12:42:55.000Z</time>
      </trkpt>
      <trkpt lat="43.6608" lon="1.67319">
        <ele>236</ele>
        <time>2017-10-11T12:43:8.000Z</time>
      </trkpt>
      <trkpt lat="43.66084" lon="1.67289">
        <ele>234</ele>
        <time>2017-10-11T12:43:25.000Z</time>
      </trkpt>
      <trkpt lat="43.6609" lon="1.67257">
        <ele>232</ele>
        <time>2017-10-11T12:43:44.000Z</time>
      </trkpt>
      <trkpt lat="43.66096" lon="1.67229">
        <ele>230</ele>
        <time>2017-10-11T12:44:1.000Z</time>
      </trkpt>
      <trkpt lat="43.66102" lon="1.67197">
        <ele>229</ele>
        <time>2017-10-11T12:44:21.000Z</time>
      </trkpt>
      <trkpt lat="43.66109" lon="1.6716">
        <ele>227</ele>
        <time>2017-10-11T12:44:44.000Z</time>
      </trkpt>
      <trkpt lat="43.66118" lon="1.67139">
        <ele>224</ele>
        <time>2017-10-11T12:44:58.000Z</time>
      </trkpt>
      <trkpt lat="43.66132" lon="1.67111">
        <ele>222</ele>
        <time>2017-10-11T12:45:18.000Z</time>
      </trkpt>
      <trkpt lat="43.66143" lon="1.67086">
        <ele>221</ele>
        <time>2017-10-11T12:45:35.000Z</time>
      </trkpt>
      <trkpt lat="43.66155" lon="1.6706">
        <ele>219</ele>
        <time>2017-10-11T12:45:54.000Z</time>
      </trkpt>
      <trkpt lat="43.66162" lon="1.67045">
        <ele>218</ele>
        <time>2017-10-11T12:46:5.000Z</time>
      </trkpt>
      <trkpt lat="43.66175" lon="1.67019">
        <ele>215</ele>
        <time>2017-10-11T12:46:23.000Z</time>
      </trkpt>
      <trkpt lat="43.66186" lon="1.67008">
        <ele>213</ele>
        <time>2017-10-11T12:46:38.000Z</time>
      </trkpt>
      <trkpt lat="43.66201" lon="1.66993">
        <ele>211</ele>
        <time>2017-10-11T12:46:55.000Z</time>
      </trkpt>
      <trkpt lat="43.66213" lon="1.6698">
        <ele>210</ele>
        <time>2017-10-11T12:47:11.000Z</time>
      </trkpt>
      <trkpt lat="43.66224" lon="1.66962">
        <ele>209</ele>
        <time>2017-10-11T12:47:28.000Z</time>
      </trkpt>
      <trkpt lat="43.6624" lon="1.66936">
        <ele>208</ele>
        <time>2017-10-11T12:47:48.000Z</time>
      </trkpt>
      <trkpt lat="43.66243" lon="1.66907">
        <ele>206</ele>
        <time>2017-10-11T12:48:7.000Z</time>
      </trkpt>
      <trkpt lat="43.66244" lon="1.66878">
        <ele>204</ele>
        <time>2017-10-11T12:48:26.000Z</time>
      </trkpt>
      <trkpt lat="43.66245" lon="1.66846">
        <ele>201</ele>
        <time>2017-10-11T12:48:45.000Z</time>
      </trkpt>
      <trkpt lat="43.66242" lon="1.66819">
        <ele>199</ele>
        <time>2017-10-11T12:49:1.000Z</time>
      </trkpt>
      <trkpt lat="43.66231" lon="1.66793">
        <ele>197</ele>
        <time>2017-10-11T12:49:19.000Z</time>
      </trkpt>
      <trkpt lat="43.66217" lon="1.66775">
        <ele>198</ele>
        <time>2017-10-11T12:49:35.000Z</time>
      </trkpt>
      <trkpt lat="43.66216" lon="1.66774">
        <ele>198</ele>
        <time>2017-10-11T12:49:36.000Z</time>
      </trkpt>
      <trkpt lat="43.66212" lon="1.66774">
        <ele>199</ele>
        <time>2017-10-11T12:49:40.000Z</time>
      </trkpt>
      <trkpt lat="43.66198" lon="1.66774">
        <ele>200</ele>
        <time>2017-10-11T12:49:51.000Z</time>
      </trkpt>
      <trkpt lat="43.66184" lon="1.66764">
        <ele>201</ele>
        <time>2017-10-11T12:50:7.000Z</time>
      </trkpt>
      <trkpt lat="43.66175" lon="1.66759">
        <ele>202</ele>
        <time>2017-10-11T12:50:17.000Z</time>
      </trkpt>
      <trkpt lat="43.66173" lon="1.66756">
        <ele>203</ele>
        <time>2017-10-11T12:50:20.000Z</time>
      </trkpt>
      <trkpt lat="43.66159" lon="1.66747">
        <ele>204</ele>
        <time>2017-10-11T12:50:36.000Z</time>
      </trkpt>
      <trkpt lat="43.66147" lon="1.6674">
        <ele>206</ele>
        <time>2017-10-11T12:50:51.000Z</time>
      </trkpt>
      <trkpt lat="43.66136" lon="1.66731">
        <ele>208</ele>
        <time>2017-10-11T12:51:4.000Z</time>
      </trkpt>
      <trkpt lat="43.66126" lon="1.66725">
        <ele>209</ele>
        <time>2017-10-11T12:51:19.000Z</time>
      </trkpt>
      <trkpt lat="43.66115" lon="1.66718">
        <ele>211</ele>
        <time>2017-10-11T12:51:33.000Z</time>
      </trkpt>
      <trkpt lat="43.66104" lon="1.66711">
        <ele>212</ele>
        <time>2017-10-11T12:51:48.000Z</time>
      </trkpt>
      <trkpt lat="43.66092" lon="1.66703">
        <ele>214</ele>
        <time>2017-10-11T12:52:3.000Z</time>
      </trkpt>
      <trkpt lat="43.66084" lon="1.66695">
        <ele>215</ele>
        <time>2017-10-11T12:52:15.000Z</time>
      </trkpt>
      <trkpt lat="43.66072" lon="1.6669">
        <ele>216</ele>
        <time>2017-10-11T12:52:30.000Z</time>
      </trkpt>
      <trkpt lat="43.66063" lon="1.66682">
        <ele>217</ele>
        <time>2017-10-11T12:52:44.000Z</time>
      </trkpt>
      <trkpt lat="43.66053" lon="1.66673">
        <ele>218</ele>
        <time>2017-10-11T12:52:58.000Z</time>
      </trkpt>
      <trkpt lat="43.66044" lon="1.66667">
        <ele>219</ele>
        <time>2017-10-11T12:53:7.000Z</time>
      </trkpt>
      <trkpt lat="43.6604" lon="1.6666">
        <ele>220</ele>
        <time>2017-10-11T12:53:13.000Z</time>
      </trkpt>
      <trkpt lat="43.66036" lon="1.66656">
        <ele>220</ele>
        <time>2017-10-11T12:53:17.000Z</time>
      </trkpt>
      <trkpt lat="43.66022" lon="1.6664">
        <ele>222</ele>
        <time>2017-10-11T12:53:35.000Z</time>
      </trkpt>
      <trkpt lat="43.66019" lon="1.66639">
        <ele>222</ele>
        <time>2017-10-11T12:53:37.000Z</time>
      </trkpt>
      <trkpt lat="43.66" lon="1.66632">
        <ele>224</ele>
        <time>2017-10-11T12:53:54.000Z</time>
      </trkpt>
      <trkpt lat="43.65988" lon="1.66622">
        <ele>226</ele>
        <time>2017-10-11T12:54:9.000Z</time>
      </trkpt>
      <trkpt lat="43.65974" lon="1.66607">
        <ele>227</ele>
        <time>2017-10-11T12:54:25.000Z</time>
      </trkpt>
      <trkpt lat="43.65959" lon="1.66594">
        <ele>228</ele>
        <time>2017-10-11T12:54:40.000Z</time>
      </trkpt>
      <trkpt lat="43.6595" lon="1.66576">
        <ele>227</ele>
        <time>2017-10-11T12:54:55.000Z</time>
      </trkpt>
      <trkpt lat="43.65938" lon="1.66558">
        <ele>228</ele>
        <time>2017-10-11T12:55:10.000Z</time>
      </trkpt>
      <trkpt lat="43.65926" lon="1.66535">
        <ele>228</ele>
        <time>2017-10-11T12:55:28.000Z</time>
      </trkpt>
      <trkpt lat="43.65915" lon="1.66512">
        <ele>228</ele>
        <time>2017-10-11T12:55:47.000Z</time>
      </trkpt>
      <trkpt lat="43.65914" lon="1.66505">
        <ele>228</ele>
        <time>2017-10-11T12:55:51.000Z</time>
      </trkpt>
      <trkpt lat="43.65905" lon="1.66486">
        <ele>229</ele>
        <time>2017-10-11T12:56:6.000Z</time>
      </trkpt>
      <trkpt lat="43.65904" lon="1.66482">
        <ele>229</ele>
        <time>2017-10-11T12:56:9.000Z</time>
      </trkpt>
      <trkpt lat="43.65899" lon="1.66453">
        <ele>229</ele>
        <time>2017-10-11T12:56:28.000Z</time>
      </trkpt>
      <trkpt lat="43.65895" lon="1.66437">
        <ele>229</ele>
        <time>2017-10-11T12:56:42.000Z</time>
      </trkpt>
      <trkpt lat="43.65895" lon="1.66437">
        <ele>229</ele>
        <time>2017-10-11T12:56:43.000Z</time>
      </trkpt>
      <trkpt lat="43.65894" lon="1.66429">
        <ele>229</ele>
        <time>2017-10-11T12:56:49.000Z</time>
      </trkpt>
      <trkpt lat="43.65892" lon="1.66404">
        <ele>230</ele>
        <time>2017-10-11T12:57:5.000Z</time>
      </trkpt>
      <trkpt lat="43.65894" lon="1.66382">
        <ele>231</ele>
        <time>2017-10-11T12:57:21.000Z</time>
      </trkpt>
      <trkpt lat="43.65896" lon="1.66362">
        <ele>230</ele>
        <time>2017-10-11T12:57:34.000Z</time>
      </trkpt>
      <trkpt lat="43.65896" lon="1.66356">
        <ele>230</ele>
        <time>2017-10-11T12:57:38.000Z</time>
      </trkpt>
      <trkpt lat="43.65897" lon="1.66345">
        <ele>230</ele>
        <time>2017-10-11T12:57:45.000Z</time>
      </trkpt>
      <trkpt lat="43.65899" lon="1.66323">
        <ele>230</ele>
        <time>2017-10-11T12:58:0.000Z</time>
      </trkpt>
      <trkpt lat="43.65898" lon="1.66303">
        <ele>229</ele>
        <time>2017-10-11T12:58:14.000Z</time>
      </trkpt>
      <trkpt lat="43.65886" lon="1.66302">
        <ele>229</ele>
        <time>2017-10-11T12:58:29.000Z</time>
      </trkpt>
      <trkpt lat="43.65872" lon="1.66304">
        <ele>230</ele>
        <time>2017-10-11T12:58:44.000Z</time>
      </trkpt>
      <trkpt lat="43.65855" lon="1.66304">
        <ele>230</ele>
        <time>2017-10-11T12:58:59.000Z</time>
      </trkpt>
      <trkpt lat="43.6585" lon="1.66297">
        <ele>229</ele>
        <time>2017-10-11T12:59:4.000Z</time>
      </trkpt>
      <trkpt lat="43.65844" lon="1.66296">
        <ele>229</ele>
        <time>2017-10-11T12:59:9.000Z</time>
      </trkpt>
      <trkpt lat="43.6584" lon="1.66298">
        <ele>230</ele>
        <time>2017-10-11T12:59:13.000Z</time>
      </trkpt>
      <trkpt lat="43.65822" lon="1.66298">
        <ele>230</ele>
        <time>2017-10-11T12:59:27.000Z</time>
      </trkpt>
      <trkpt lat="43.65813" lon="1.66299">
        <ele>230</ele>
        <time>2017-10-11T12:59:36.000Z</time>
      </trkpt>
      <trkpt lat="43.65802" lon="1.66293">
        <ele>230</ele>
        <time>2017-10-11T12:59:51.000Z</time>
      </trkpt>
      <trkpt lat="43.65797" lon="1.66287">
        <ele>230</ele>
        <time>2017-10-11T13:00:4.000Z</time>
      </trkpt>
      <trkpt lat="43.65789" lon="1.66277">
        <ele>230</ele>
        <time>2017-10-11T13:00:11.000Z</time>
      </trkpt>
      <trkpt lat="43.65785" lon="1.66252">
        <ele>229</ele>
        <time>2017-10-11T13:00:28.000Z</time>
      </trkpt>
      <trkpt lat="43.65785" lon="1.66249">
        <ele>229</ele>
        <time>2017-10-11T13:00:29.000Z</time>
      </trkpt>
      <trkpt lat="43.65786" lon="1.6624">
        <ele>228</ele>
        <time>2017-10-11T13:00:34.000Z</time>
      </trkpt>
      <trkpt lat="43.65794" lon="1.66229">
        <ele>227</ele>
        <time>2017-10-11T13:00:48.000Z</time>
      </trkpt>
      <trkpt lat="43.65795" lon="1.66229">
        <ele>227</ele>
        <time>2017-10-11T13:01:3.000Z</time>
      </trkpt>
    </trkseg>
  </trk>
</gpx>